<?xml version='1.0' encoding='UTF-8'?><gpx version="1.1" creator="JPX - https://github.com/jenetics/jpx" xmlns="http://www.topografix.com/GPX/1/1"><trk><trkseg><trkpt lat="43.0862893" lon="10.6030945"><ele>278.99999999999994</ele><time>2026-04-25T11:46:17.493Z</time></trkpt><trkpt lat="43.0862669" lon="10.6030071"><ele>279.0</ele><time>2026-04-25T11:46:27.332Z</time></trkpt><trkpt lat="43.0863189" lon="10.6030607"><ele>279.0</ele><time>2026-04-25T11:46:34.447Z</time></trkpt><trkpt lat="43.0863769" lon="10.6030027"><ele>279.0</ele><time>2026-04-25T11:46:41.469Z</time></trkpt><trkpt lat="43.0863944" lon="10.6029113"><ele>279.0</ele><time>2026-04-25T11:46:49.445Z</time></trkpt><trkpt lat="43.086435" lon="10.6028432"><ele>278.99999999999994</ele><time>2026-04-25T11:46:57.387Z</time></trkpt><trkpt lat="43.0864779" lon="10.6027785"><ele>279.0</ele><time>2026-04-25T11:47:02.487Z</time></trkpt><trkpt lat="43.0865397" lon="10.6027507"><ele>279.57142857142856</ele><time>2026-04-25T11:47:09.444Z</time></trkpt><trkpt lat="43.0866115" lon="10.602731"><ele>280.1428571428571</ele><time>2026-04-25T11:47:15.42Z</time></trkpt><trkpt lat="43.0866768" lon="10.6027078"><ele>280.7142857142857</ele><time>2026-04-25T11:47:23.463Z</time></trkpt><trkpt lat="43.0867395" lon="10.6027455"><ele>281.2857142857143</ele><time>2026-04-25T11:47:31.37Z</time></trkpt><trkpt lat="43.0867584" lon="10.6028494"><ele>281.8571428571429</ele><time>2026-04-25T11:47:37.871Z</time></trkpt><trkpt lat="43.0868195" lon="10.6028702"><ele>282.42857142857144</ele><time>2026-04-25T11:47:42.482Z</time></trkpt><trkpt lat="43.086866" lon="10.6029291"><ele>283.0</ele><time>2026-04-25T11:47:48.461Z</time></trkpt><trkpt lat="43.086935" lon="10.6029519"><ele>283.0</ele><time>2026-04-25T11:47:54.437Z</time></trkpt><trkpt lat="43.0869935" lon="10.602989"><ele>283.0</ele><time>2026-04-25T11:47:59.436Z</time></trkpt><trkpt lat="43.087046" lon="10.6030366"><ele>283.0</ele><time>2026-04-25T11:48:03.458Z</time></trkpt><trkpt lat="43.0870975" lon="10.6031079"><ele>283.0</ele><time>2026-04-25T11:48:09.436Z</time></trkpt><trkpt lat="43.0871245" lon="10.6032008"><ele>283.0</ele><time>2026-04-25T11:48:15.522Z</time></trkpt><trkpt lat="43.0871522" lon="10.6032845"><ele>283.0</ele><time>2026-04-25T11:48:19.434Z</time></trkpt><trkpt lat="43.0871881" lon="10.6033576"><ele>283.0</ele><time>2026-04-25T11:48:26.498Z</time></trkpt><trkpt lat="43.0872009" lon="10.6034432"><ele>283.0</ele><time>2026-04-25T11:48:32.476Z</time></trkpt><trkpt lat="43.0872439" lon="10.6035175"><ele>283.0</ele><time>2026-04-25T11:48:39.432Z</time></trkpt><trkpt lat="43.0872696" lon="10.603599"><ele>283.0</ele><time>2026-04-25T11:48:47.473Z</time></trkpt><trkpt lat="43.0872944" lon="10.6036806"><ele>283.0</ele><time>2026-04-25T11:48:54.43Z</time></trkpt><trkpt lat="43.0873204" lon="10.6037608"><ele>283.0</ele><time>2026-04-25T11:49:01.494Z</time></trkpt><trkpt lat="43.0873474" lon="10.6038411"><ele>283.0</ele><time>2026-04-25T11:49:07.471Z</time></trkpt><trkpt lat="43.0873768" lon="10.603921"><ele>283.0</ele><time>2026-04-25T11:49:14.426Z</time></trkpt><trkpt lat="43.0873385" lon="10.6039998"><ele>282.7142857142857</ele><time>2026-04-25T11:49:23.447Z</time></trkpt><trkpt lat="43.0873525" lon="10.6040897"><ele>282.42857142857144</ele><time>2026-04-25T11:49:37.467Z</time></trkpt><trkpt lat="43.0873658" lon="10.6041807"><ele>282.14285714285717</ele><time>2026-04-25T11:49:48.444Z</time></trkpt><trkpt lat="43.0874264" lon="10.6042275"><ele>281.8571428571429</ele><time>2026-04-25T11:49:59.421Z</time></trkpt><trkpt lat="43.0874827" lon="10.6042698"><ele>281.57142857142856</ele><time>2026-04-25T11:50:08.442Z</time></trkpt><trkpt lat="43.0875315" lon="10.6043344"><ele>281.28571428571433</ele><time>2026-04-25T11:50:37.463Z</time></trkpt><trkpt lat="43.0875758" lon="10.6043988"><ele>281.0</ele><time>2026-04-25T11:50:43.441Z</time></trkpt><trkpt lat="43.087627" lon="10.6044573"><ele>279.00000000000006</ele><time>2026-04-25T11:50:53.441Z</time></trkpt><trkpt lat="43.0876905" lon="10.6044592"><ele>277.0</ele><time>2026-04-25T11:51:06.483Z</time></trkpt><trkpt lat="43.0877473" lon="10.6045012"><ele>275.0</ele><time>2026-04-25T11:51:28.438Z</time></trkpt><trkpt lat="43.087787" lon="10.6045707"><ele>273.0</ele><time>2026-04-25T11:51:40.503Z</time></trkpt><trkpt lat="43.0877623" lon="10.6047109"><ele>271.0</ele><time>2026-04-25T11:52:15.49Z</time></trkpt><trkpt lat="43.0877156" lon="10.6047891"><ele>269.00000000000006</ele><time>2026-04-25T11:52:29.35Z</time></trkpt><trkpt lat="43.0876621" lon="10.6048523"><ele>267.0</ele><time>2026-04-25T11:52:36.482Z</time></trkpt><trkpt lat="43.0876026" lon="10.6049511"><ele>267.0</ele><time>2026-04-25T11:53:02.461Z</time></trkpt><trkpt lat="43.08755" lon="10.6050291"><ele>267.0</ele><time>2026-04-25T11:53:15.416Z</time></trkpt><trkpt lat="43.0874957" lon="10.6050876"><ele>267.0</ele><time>2026-04-25T11:53:21.484Z</time></trkpt><trkpt lat="43.0874383" lon="10.6051409"><ele>267.0</ele><time>2026-04-25T11:53:28.449Z</time></trkpt><trkpt lat="43.0873803" lon="10.6051909"><ele>267.0</ele><time>2026-04-25T11:53:36.485Z</time></trkpt><trkpt lat="43.0872675" lon="10.6053003"><ele>267.0</ele><time>2026-04-25T11:54:05.411Z</time></trkpt><trkpt lat="43.0872171" lon="10.6053574"><ele>263.28571428571433</ele><time>2026-04-25T11:54:17.466Z</time></trkpt><trkpt lat="43.0871778" lon="10.6054262"><ele>259.57142857142856</ele><time>2026-04-25T11:54:29.422Z</time></trkpt><trkpt lat="43.087148" lon="10.6055095"><ele>255.8571428571429</ele><time>2026-04-25T11:54:39.423Z</time></trkpt><trkpt lat="43.0871318" lon="10.6055934"><ele>252.14285714285717</ele><time>2026-04-25T11:54:56.489Z</time></trkpt><trkpt lat="43.0871014" lon="10.6056698"><ele>248.42857142857144</ele><time>2026-04-25T11:55:09.425Z</time></trkpt><trkpt lat="43.0870706" lon="10.6057527"><ele>244.71428571428572</ele><time>2026-04-25T11:55:18.447Z</time></trkpt><trkpt lat="43.0870135" lon="10.6058016"><ele>241.0</ele><time>2026-04-25T11:55:26.491Z</time></trkpt><trkpt lat="43.0869552" lon="10.6058614"><ele>241.0</ele><time>2026-04-25T11:55:31.492Z</time></trkpt><trkpt lat="43.0868972" lon="10.6058999"><ele>241.00000000000003</ele><time>2026-04-25T11:55:37.468Z</time></trkpt><trkpt lat="43.0868913" lon="10.6060171"><ele>241.0</ele><time>2026-04-25T11:55:52.472Z</time></trkpt><trkpt lat="43.0868426" lon="10.6060729"><ele>241.0</ele><time>2026-04-25T11:55:59.366Z</time></trkpt><trkpt lat="43.0867813" lon="10.6061145"><ele>241.00000000000003</ele><time>2026-04-25T11:56:05.516Z</time></trkpt><trkpt lat="43.0867422" lon="10.6061945"><ele>241.0</ele><time>2026-04-25T11:56:11.415Z</time></trkpt><trkpt lat="43.0866982" lon="10.6062721"><ele>241.0</ele><time>2026-04-25T11:56:19.43Z</time></trkpt><trkpt lat="43.0866736" lon="10.6063676"><ele>241.0</ele><time>2026-04-25T11:56:26.415Z</time></trkpt><trkpt lat="43.0866528" lon="10.6064548"><ele>241.00000000000003</ele><time>2026-04-25T11:56:33.453Z</time></trkpt><trkpt lat="43.0866298" lon="10.6065448"><ele>241.0</ele><time>2026-04-25T11:56:40.415Z</time></trkpt><trkpt lat="43.086586" lon="10.6066176"><ele>241.0</ele><time>2026-04-25T11:56:48.455Z</time></trkpt><trkpt lat="43.0865685" lon="10.6067049"><ele>241.00000000000003</ele><time>2026-04-25T11:56:56.93Z</time></trkpt><trkpt lat="43.0865443" lon="10.6067899"><ele>241.0</ele><time>2026-04-25T11:57:06.416Z</time></trkpt><trkpt lat="43.0865225" lon="10.6068733"><ele>241.0</ele><time>2026-04-25T11:57:14.488Z</time></trkpt><trkpt lat="43.0865207" lon="10.6069653"><ele>240.0</ele><time>2026-04-25T11:57:20.416Z</time></trkpt><trkpt lat="43.0864976" lon="10.6070467"><ele>239.00000000000003</ele><time>2026-04-25T11:57:28.459Z</time></trkpt><trkpt lat="43.0864582" lon="10.6071152"><ele>238.0</ele><time>2026-04-25T11:57:38.459Z</time></trkpt><trkpt lat="43.086403" lon="10.6071568"><ele>237.0</ele><time>2026-04-25T11:57:49.446Z</time></trkpt><trkpt lat="43.0863479" lon="10.6072001"><ele>236.00000000000003</ele><time>2026-04-25T11:57:59.488Z</time></trkpt><trkpt lat="43.0862817" lon="10.6072108"><ele>235.0</ele><time>2026-04-25T11:58:05.419Z</time></trkpt><trkpt lat="43.0862184" lon="10.6072532"><ele>234.0</ele><time>2026-04-25T11:58:13.465Z</time></trkpt><trkpt lat="43.0861626" lon="10.6073039"><ele>234.0</ele><time>2026-04-25T11:58:24.511Z</time></trkpt><trkpt lat="43.0861057" lon="10.6073765"><ele>234.0</ele><time>2026-04-25T11:58:35.423Z</time></trkpt><trkpt lat="43.0861176" lon="10.6072865"><ele>234.0</ele><time>2026-04-25T11:59:00.427Z</time></trkpt><trkpt lat="43.0860758" lon="10.6071179"><ele>234.0</ele><time>2026-04-25T11:59:26.414Z</time></trkpt><trkpt lat="43.0860333" lon="10.607041"><ele>234.0</ele><time>2026-04-25T11:59:33.476Z</time></trkpt><trkpt lat="43.0859815" lon="10.6069907"><ele>234.0</ele><time>2026-04-25T11:59:39.456Z</time></trkpt><trkpt lat="43.0859138" lon="10.6069665"><ele>234.0</ele><time>2026-04-25T11:59:44.507Z</time></trkpt><trkpt lat="43.0858415" lon="10.6069889"><ele>234.00000000000003</ele><time>2026-04-25T11:59:51.415Z</time></trkpt><trkpt lat="43.0857779" lon="10.6070105"><ele>234.0</ele><time>2026-04-25T11:59:56.491Z</time></trkpt><trkpt lat="43.0857088" lon="10.6070101"><ele>234.0</ele><time>2026-04-25T12:00:02.414Z</time></trkpt><trkpt lat="43.085638" lon="10.6070122"><ele>234.00000000000003</ele><time>2026-04-25T12:00:07.503Z</time></trkpt><trkpt lat="43.0855731" lon="10.607016"><ele>234.0</ele><time>2026-04-25T12:00:13.469Z</time></trkpt><trkpt lat="43.0854985" lon="10.6070407"><ele>234.0</ele><time>2026-04-25T12:00:20.046Z</time></trkpt><trkpt lat="43.0854387" lon="10.607077"><ele>233.57142857142858</ele><time>2026-04-25T12:00:27.507Z</time></trkpt><trkpt lat="43.0853718" lon="10.6070559"><ele>233.14285714285717</ele><time>2026-04-25T12:00:34.464Z</time></trkpt><trkpt lat="43.0852991" lon="10.6070577"><ele>232.71428571428572</ele><time>2026-04-25T12:00:43.482Z</time></trkpt><trkpt lat="43.0852429" lon="10.6070142"><ele>232.28571428571428</ele><time>2026-04-25T12:00:52.414Z</time></trkpt><trkpt lat="43.085176" lon="10.6069604"><ele>231.85714285714286</ele><time>2026-04-25T12:00:59.287Z</time></trkpt><trkpt lat="43.0851143" lon="10.6069139"><ele>231.42857142857144</ele><time>2026-04-25T12:01:08.486Z</time></trkpt><trkpt lat="43.0850386" lon="10.606886"><ele>231.0</ele><time>2026-04-25T12:01:17.414Z</time></trkpt><trkpt lat="43.0849703" lon="10.6068658"><ele>230.0</ele><time>2026-04-25T12:01:25.439Z</time></trkpt><trkpt lat="43.0849016" lon="10.6068675"><ele>229.0</ele><time>2026-04-25T12:01:30.441Z</time></trkpt><trkpt lat="43.0848194" lon="10.6068758"><ele>228.0</ele><time>2026-04-25T12:01:36.328Z</time></trkpt><trkpt lat="43.0847553" lon="10.6069241"><ele>227.0</ele><time>2026-04-25T12:01:45.44Z</time></trkpt><trkpt lat="43.0846917" lon="10.6069042"><ele>226.0</ele><time>2026-04-25T12:01:51.527Z</time></trkpt><trkpt lat="43.0846435" lon="10.6068384"><ele>225.0</ele><time>2026-04-25T12:02:01.527Z</time></trkpt><trkpt lat="43.0845964" lon="10.6067736"><ele>224.0</ele><time>2026-04-25T12:02:12.506Z</time></trkpt><trkpt lat="43.0845455" lon="10.6067223"><ele>224.0</ele><time>2026-04-25T12:02:22.448Z</time></trkpt><trkpt lat="43.0844907" lon="10.6066687"><ele>224.0</ele><time>2026-04-25T12:02:31.45Z</time></trkpt><trkpt lat="43.0844505" lon="10.606593"><ele>224.0</ele><time>2026-04-25T12:02:41.526Z</time></trkpt><trkpt lat="43.0844168" lon="10.606518"><ele>224.0</ele><time>2026-04-25T12:02:51.391Z</time></trkpt><trkpt lat="43.0843551" lon="10.6064815"><ele>224.0</ele><time>2026-04-25T12:02:58.482Z</time></trkpt><trkpt lat="43.0842937" lon="10.6064623"><ele>224.0</ele><time>2026-04-25T12:03:05.438Z</time></trkpt><trkpt lat="43.0842303" lon="10.6064377"><ele>224.0</ele><time>2026-04-25T12:03:31.532Z</time></trkpt><trkpt lat="43.0841766" lon="10.6063841"><ele>224.0</ele><time>2026-04-25T12:03:39.458Z</time></trkpt><trkpt lat="43.0841093" lon="10.6063801"><ele>224.0</ele><time>2026-04-25T12:03:47.501Z</time></trkpt><trkpt lat="43.0840439" lon="10.6063699"><ele>224.0</ele><time>2026-04-25T12:03:55.467Z</time></trkpt><trkpt lat="43.0839963" lon="10.6063106"><ele>224.0</ele><time>2026-04-25T12:04:03.431Z</time></trkpt><trkpt lat="43.0839426" lon="10.6062605"><ele>224.0</ele><time>2026-04-25T12:04:11.522Z</time></trkpt><trkpt lat="43.08388" lon="10.6062376"><ele>224.0</ele><time>2026-04-25T12:04:19.456Z</time></trkpt><trkpt lat="43.0838099" lon="10.6062425"><ele>224.0</ele><time>2026-04-25T12:04:27.629Z</time></trkpt><trkpt lat="43.0837424" lon="10.6062585"><ele>225.00000000000003</ele><time>2026-04-25T12:04:34.467Z</time></trkpt><trkpt lat="43.083679" lon="10.6062846"><ele>226.0</ele><time>2026-04-25T12:04:41.52Z</time></trkpt><trkpt lat="43.0836122" lon="10.6062854"><ele>227.0</ele><time>2026-04-25T12:04:49.388Z</time></trkpt><trkpt lat="43.083506" lon="10.6063287"><ele>228.0</ele><time>2026-04-25T12:05:10.467Z</time></trkpt><trkpt lat="43.0834457" lon="10.6063581"><ele>229.00000000000003</ele><time>2026-04-25T12:05:21.409Z</time></trkpt><trkpt lat="43.0833593" lon="10.6064189"><ele>230.0</ele><time>2026-04-25T12:05:39.451Z</time></trkpt><trkpt lat="43.0833191" lon="10.606486"><ele>230.00000000000003</ele><time>2026-04-25T12:05:44.45Z</time></trkpt><trkpt lat="43.0832614" lon="10.6065413"><ele>230.0</ele><time>2026-04-25T12:05:51.514Z</time></trkpt><trkpt lat="43.0832137" lon="10.6066033"><ele>230.0</ele><time>2026-04-25T12:05:57.493Z</time></trkpt><trkpt lat="43.0832154" lon="10.6066968"><ele>230.0</ele><time>2026-04-25T12:06:17.491Z</time></trkpt><trkpt lat="43.0832371" lon="10.606781"><ele>230.00000000000003</ele><time>2026-04-25T12:06:36.511Z</time></trkpt><trkpt lat="43.0833523" lon="10.6068443"><ele>230.0</ele><time>2026-04-25T12:06:52.489Z</time></trkpt><trkpt lat="43.0834157" lon="10.606884"><ele>229.99999999999997</ele><time>2026-04-25T12:06:58.451Z</time></trkpt><trkpt lat="43.0834691" lon="10.6069445"><ele>230.0</ele><time>2026-04-25T12:07:06.51Z</time></trkpt><trkpt lat="43.0835229" lon="10.6069999"><ele>229.99999999999997</ele><time>2026-04-25T12:07:14.444Z</time></trkpt><trkpt lat="43.0835716" lon="10.6070593"><ele>229.99999999999997</ele><time>2026-04-25T12:07:29.348Z</time></trkpt><trkpt lat="43.0836267" lon="10.6071027"><ele>230.0</ele><time>2026-04-25T12:07:40.53Z</time></trkpt><trkpt lat="43.083678" lon="10.6071608"><ele>229.99999999999997</ele><time>2026-04-25T12:07:49.442Z</time></trkpt><trkpt lat="43.0837481" lon="10.6072894"><ele>229.99999999999997</ele><time>2026-04-25T12:08:24.44Z</time></trkpt><trkpt lat="43.0837953" lon="10.6073495"><ele>233.66666666666669</ele><time>2026-04-25T12:08:33.461Z</time></trkpt><trkpt lat="43.0838628" lon="10.6074414"><ele>237.33333333333334</ele><time>2026-04-25T12:08:57.481Z</time></trkpt><trkpt lat="43.0838881" lon="10.607539"><ele>241.0</ele><time>2026-04-25T12:09:23.457Z</time></trkpt><trkpt lat="43.083908" lon="10.6076213"><ele>244.66666666666669</ele><time>2026-04-25T12:09:33.456Z</time></trkpt><trkpt lat="43.0839681" lon="10.6076737"><ele>248.33333333333334</ele><time>2026-04-25T12:09:57.476Z</time></trkpt><trkpt lat="43.0839624" lon="10.6077996"><ele>252.0</ele><time>2026-04-25T12:10:44.539Z</time></trkpt><trkpt lat="43.0840029" lon="10.607909"><ele>252.85714285714286</ele><time>2026-04-25T12:11:01.493Z</time></trkpt><trkpt lat="43.0840443" lon="10.6079832"><ele>253.71428571428572</ele><time>2026-04-25T12:11:09.427Z</time></trkpt><trkpt lat="43.0840808" lon="10.6080611"><ele>254.57142857142856</ele><time>2026-04-25T12:11:17.468Z</time></trkpt><trkpt lat="43.0841138" lon="10.6081411"><ele>255.42857142857142</ele><time>2026-04-25T12:11:26.47Z</time></trkpt><trkpt lat="43.0841541" lon="10.608216"><ele>256.2857142857143</ele><time>2026-04-25T12:11:37.469Z</time></trkpt><trkpt lat="43.084163" lon="10.6083109"><ele>257.1428571428571</ele><time>2026-04-25T12:11:48.446Z</time></trkpt><trkpt lat="43.0841686" lon="10.6084007"><ele>258.0</ele><time>2026-04-25T12:12:21.489Z</time></trkpt><trkpt lat="43.0840766" lon="10.6084676"><ele>260.1428571428571</ele><time>2026-04-25T12:12:41.512Z</time></trkpt><trkpt lat="43.0840083" lon="10.6084399"><ele>262.2857142857143</ele><time>2026-04-25T12:12:50.51Z</time></trkpt><trkpt lat="43.0839446" lon="10.6084399"><ele>264.42857142857144</ele><time>2026-04-25T12:12:59.53Z</time></trkpt><trkpt lat="43.083878" lon="10.6084536"><ele>266.57142857142856</ele><time>2026-04-25T12:13:11.486Z</time></trkpt><trkpt lat="43.0838113" lon="10.6084419"><ele>268.7142857142857</ele><time>2026-04-25T12:13:22.464Z</time></trkpt><trkpt lat="43.0837526" lon="10.6084083"><ele>270.85714285714283</ele><time>2026-04-25T12:13:31.485Z</time></trkpt><trkpt lat="43.0837025" lon="10.6083552"><ele>273.0</ele><time>2026-04-25T12:13:43.442Z</time></trkpt><trkpt lat="43.0836411" lon="10.6083215"><ele>273.0</ele><time>2026-04-25T12:13:53.441Z</time></trkpt><trkpt lat="43.0835754" lon="10.6082777"><ele>273.0</ele><time>2026-04-25T12:14:01.419Z</time></trkpt><trkpt lat="43.0835187" lon="10.6082197"><ele>273.0</ele><time>2026-04-25T12:14:10.528Z</time></trkpt><trkpt lat="43.0834621" lon="10.6081756"><ele>273.0</ele><time>2026-04-25T12:14:18.439Z</time></trkpt><trkpt lat="43.0834004" lon="10.6081438"><ele>273.0</ele><time>2026-04-25T12:14:24.526Z</time></trkpt><trkpt lat="43.0833365" lon="10.608112"><ele>273.0</ele><time>2026-04-25T12:14:31.483Z</time></trkpt><trkpt lat="43.0832608" lon="10.6080958"><ele>273.0</ele><time>2026-04-25T12:14:38.489Z</time></trkpt><trkpt lat="43.0831905" lon="10.6080753"><ele>275.7142857142857</ele><time>2026-04-25T12:14:44.526Z</time></trkpt><trkpt lat="43.0831256" lon="10.608061"><ele>278.42857142857144</ele><time>2026-04-25T12:14:51.482Z</time></trkpt><trkpt lat="43.0830615" lon="10.6080691"><ele>281.1428571428571</ele><time>2026-04-25T12:15:00.503Z</time></trkpt><trkpt lat="43.083001" lon="10.6081418"><ele>283.8571428571429</ele><time>2026-04-25T12:15:27.457Z</time></trkpt><trkpt lat="43.0830254" lon="10.6080615"><ele>286.57142857142856</ele><time>2026-04-25T12:16:00.427Z</time></trkpt><trkpt lat="43.0829753" lon="10.6080007"><ele>289.2857142857143</ele><time>2026-04-25T12:16:13.433Z</time></trkpt><trkpt lat="43.0829065" lon="10.6079829"><ele>292.0</ele><time>2026-04-25T12:16:22.428Z</time></trkpt><trkpt lat="43.0828451" lon="10.6079589"><ele>292.0</ele><time>2026-04-25T12:16:28.449Z</time></trkpt><trkpt lat="43.0827858" lon="10.6079236"><ele>292.0</ele><time>2026-04-25T12:16:35.497Z</time></trkpt><trkpt lat="43.0827198" lon="10.6078758"><ele>292.0</ele><time>2026-04-25T12:16:46.47Z</time></trkpt><trkpt lat="43.0826614" lon="10.6078355"><ele>292.0</ele><time>2026-04-25T12:16:51.192Z</time></trkpt><trkpt lat="43.0826082" lon="10.6077875"><ele>292.0</ele><time>2026-04-25T12:16:57.45Z</time></trkpt><trkpt lat="43.0825409" lon="10.6077636"><ele>292.0</ele><time>2026-04-25T12:17:05.493Z</time></trkpt><trkpt lat="43.0824725" lon="10.6077396"><ele>292.0</ele><time>2026-04-25T12:17:14.412Z</time></trkpt><trkpt lat="43.0824077" lon="10.6077096"><ele>291.0</ele><time>2026-04-25T12:17:32.09Z</time></trkpt><trkpt lat="43.0823523" lon="10.6076612"><ele>290.0</ele><time>2026-04-25T12:17:42.454Z</time></trkpt><trkpt lat="43.082271" lon="10.6075976"><ele>289.0</ele><time>2026-04-25T12:18:02.454Z</time></trkpt><trkpt lat="43.0822062" lon="10.6075653"><ele>288.0</ele><time>2026-04-25T12:18:12.454Z</time></trkpt><trkpt lat="43.0821453" lon="10.6075281"><ele>287.0</ele><time>2026-04-25T12:18:23.432Z</time></trkpt><trkpt lat="43.0820829" lon="10.6074993"><ele>286.0</ele><time>2026-04-25T12:18:34.52Z</time></trkpt><trkpt lat="43.0820229" lon="10.6074678"><ele>285.0</ele><time>2026-04-25T12:18:43.433Z</time></trkpt><trkpt lat="43.0819568" lon="10.6074524"><ele>285.0</ele><time>2026-04-25T12:18:53.432Z</time></trkpt><trkpt lat="43.0818929" lon="10.6074514"><ele>285.0</ele><time>2026-04-25T12:19:04.519Z</time></trkpt><trkpt lat="43.0818053" lon="10.6074605"><ele>285.0</ele><time>2026-04-25T12:19:38.432Z</time></trkpt><trkpt lat="43.081739" lon="10.6074375"><ele>285.0</ele><time>2026-04-25T12:19:47.453Z</time></trkpt><trkpt lat="43.0816756" lon="10.6074045"><ele>285.0</ele><time>2026-04-25T12:19:57.452Z</time></trkpt><trkpt lat="43.0815839" lon="10.6074218"><ele>285.0</ele><time>2026-04-25T12:20:16.551Z</time></trkpt><trkpt lat="43.0815155" lon="10.6074244"><ele>285.0</ele><time>2026-04-25T12:20:24.517Z</time></trkpt><trkpt lat="43.0814521" lon="10.6074415"><ele>286.1666666666667</ele><time>2026-04-25T12:20:36.407Z</time></trkpt><trkpt lat="43.0813886" lon="10.6074768"><ele>287.3333333333333</ele><time>2026-04-25T12:21:17.45Z</time></trkpt><trkpt lat="43.0813241" lon="10.6075061"><ele>288.5</ele><time>2026-04-25T12:21:24.389Z</time></trkpt><trkpt lat="43.0812618" lon="10.6075195"><ele>289.66666666666663</ele><time>2026-04-25T12:21:34.507Z</time></trkpt><trkpt lat="43.0811638" lon="10.6075581"><ele>290.8333333333333</ele><time>2026-04-25T12:22:45.491Z</time></trkpt><trkpt lat="43.0810915" lon="10.6076458"><ele>292.0</ele><time>2026-04-25T12:23:08.492Z</time></trkpt><trkpt lat="43.0810295" lon="10.6076627"><ele>292.0</ele><time>2026-04-25T12:23:17.446Z</time></trkpt><trkpt lat="43.0809644" lon="10.6076626"><ele>292.0</ele><time>2026-04-25T12:23:27.445Z</time></trkpt><trkpt lat="43.0808998" lon="10.6076702"><ele>292.0</ele><time>2026-04-25T12:23:37.445Z</time></trkpt><trkpt lat="43.0808369" lon="10.6076746"><ele>292.0</ele><time>2026-04-25T12:23:44.487Z</time></trkpt><trkpt lat="43.0807734" lon="10.6076922"><ele>292.0</ele><time>2026-04-25T12:23:54.51Z</time></trkpt><trkpt lat="43.0807138" lon="10.6077232"><ele>292.0</ele><time>2026-04-25T12:24:03.429Z</time></trkpt><trkpt lat="43.0806735" lon="10.607797"><ele>292.0</ele><time>2026-04-25T12:24:13.53Z</time></trkpt><trkpt lat="43.0806042" lon="10.607862"><ele>292.57142857142856</ele><time>2026-04-25T12:24:48.529Z</time></trkpt><trkpt lat="43.0805399" lon="10.6078999"><ele>293.14285714285717</ele><time>2026-04-25T12:24:56.464Z</time></trkpt><trkpt lat="43.0804736" lon="10.6079197"><ele>293.7142857142857</ele><time>2026-04-25T12:25:03.529Z</time></trkpt><trkpt lat="43.0804112" lon="10.6079615"><ele>294.2857142857143</ele><time>2026-04-25T12:25:11.464Z</time></trkpt><trkpt lat="43.0803942" lon="10.6080446"><ele>294.85714285714283</ele><time>2026-04-25T12:25:19.398Z</time></trkpt><trkpt lat="43.0804001" lon="10.6081332"><ele>295.42857142857144</ele><time>2026-04-25T12:25:27.487Z</time></trkpt><trkpt lat="43.0804495" lon="10.6081916"><ele>296.0</ele><time>2026-04-25T12:25:35.485Z</time></trkpt><trkpt lat="43.0805455" lon="10.6082904"><ele>296.0</ele><time>2026-04-25T12:25:52.436Z</time></trkpt><trkpt lat="43.0806085" lon="10.6083167"><ele>296.0</ele><time>2026-04-25T12:25:59.501Z</time></trkpt><trkpt lat="43.0806745" lon="10.608318"><ele>296.0</ele><time>2026-04-25T12:26:15.431Z</time></trkpt><trkpt lat="43.0807465" lon="10.6083167"><ele>296.0</ele><time>2026-04-25T12:26:23.427Z</time></trkpt><trkpt lat="43.0808129" lon="10.60834"><ele>296.0</ele><time>2026-04-25T12:26:32.443Z</time></trkpt><trkpt lat="43.0808775" lon="10.6083675"><ele>296.0</ele><time>2026-04-25T12:26:40.488Z</time></trkpt><trkpt lat="43.0809346" lon="10.608407"><ele>296.0</ele><time>2026-04-25T12:26:49.509Z</time></trkpt><trkpt lat="43.0809984" lon="10.6084121"><ele>297.0</ele><time>2026-04-25T12:27:02.446Z</time></trkpt><trkpt lat="43.0810458" lon="10.6084737"><ele>298.0</ele><time>2026-04-25T12:27:12.49Z</time></trkpt><trkpt lat="43.0809774" lon="10.6085484"><ele>299.0</ele><time>2026-04-25T12:27:39.41Z</time></trkpt><trkpt lat="43.0809268" lon="10.6086102"><ele>300.0</ele><time>2026-04-25T12:27:46.474Z</time></trkpt><trkpt lat="43.0808756" lon="10.608667"><ele>301.0</ele><time>2026-04-25T12:27:57.455Z</time></trkpt><trkpt lat="43.0808263" lon="10.6087386"><ele>302.0</ele><time>2026-04-25T12:28:04.369Z</time></trkpt><trkpt lat="43.080785" lon="10.6088231"><ele>303.0</ele><time>2026-04-25T12:28:11.478Z</time></trkpt><trkpt lat="43.0807647" lon="10.6089152"><ele>303.0</ele><time>2026-04-25T12:28:17.458Z</time></trkpt><trkpt lat="43.0807566" lon="10.6090072"><ele>303.0</ele><time>2026-04-25T12:28:26.33Z</time></trkpt><trkpt lat="43.0807535" lon="10.6091003"><ele>303.0</ele><time>2026-04-25T12:28:32.454Z</time></trkpt><trkpt lat="43.0807603" lon="10.6092265"><ele>303.0</ele><time>2026-04-25T12:29:05.506Z</time></trkpt><trkpt lat="43.0807593" lon="10.6093136"><ele>303.0</ele><time>2026-04-25T12:29:13.442Z</time></trkpt><trkpt lat="43.080776" lon="10.6093972"><ele>303.0</ele><time>2026-04-25T12:29:20.426Z</time></trkpt><trkpt lat="43.0807754" lon="10.6094926"><ele>303.0</ele><time>2026-04-25T12:29:29.423Z</time></trkpt><trkpt lat="43.0807819" lon="10.6095804"><ele>305.42857142857144</ele><time>2026-04-25T12:29:35.49Z</time></trkpt><trkpt lat="43.0807634" lon="10.6096669"><ele>307.85714285714283</ele><time>2026-04-25T12:29:43.43Z</time></trkpt><trkpt lat="43.0807443" lon="10.6097621"><ele>310.2857142857143</ele><time>2026-04-25T12:29:52.472Z</time></trkpt><trkpt lat="43.0806949" lon="10.6098306"><ele>312.7142857142857</ele><time>2026-04-25T12:30:00.408Z</time></trkpt><trkpt lat="43.0806692" lon="10.6099105"><ele>315.14285714285717</ele><time>2026-04-25T12:30:06.35Z</time></trkpt><trkpt lat="43.0806522" lon="10.609997"><ele>317.57142857142856</ele><time>2026-04-25T12:30:14.432Z</time></trkpt><trkpt lat="43.0806351" lon="10.6100904"><ele>320.0</ele><time>2026-04-25T12:30:23.456Z</time></trkpt><trkpt lat="43.0805901" lon="10.6101512"><ele>320.0</ele><time>2026-04-25T12:30:30.509Z</time></trkpt><trkpt lat="43.0805193" lon="10.6102438"><ele>320.0</ele><time>2026-04-25T12:30:58.462Z</time></trkpt><trkpt lat="43.0804635" lon="10.6103052"><ele>320.0</ele><time>2026-04-25T12:31:06.432Z</time></trkpt><trkpt lat="43.0804064" lon="10.6103417"><ele>320.0</ele><time>2026-04-25T12:31:14.443Z</time></trkpt><trkpt lat="43.0803391" lon="10.6103353"><ele>320.0</ele><time>2026-04-25T12:31:24.444Z</time></trkpt><trkpt lat="43.0802728" lon="10.6103308"><ele>320.0</ele><time>2026-04-25T12:31:30.424Z</time></trkpt><trkpt lat="43.0801203" lon="10.6102844"><ele>320.0</ele><time>2026-04-25T12:32:09.452Z</time></trkpt><trkpt lat="43.0800634" lon="10.6102329"><ele>320.0</ele><time>2026-04-25T12:32:14.453Z</time></trkpt><trkpt lat="43.0799987" lon="10.6102066"><ele>320.0</ele><time>2026-04-25T12:32:23.476Z</time></trkpt><trkpt lat="43.0799324" lon="10.6101976"><ele>320.0</ele><time>2026-04-25T12:32:34.455Z</time></trkpt><trkpt lat="43.079866" lon="10.6101734"><ele>320.0</ele><time>2026-04-25T12:32:42.5Z</time></trkpt><trkpt lat="43.0798044" lon="10.610155"><ele>320.0</ele><time>2026-04-25T12:32:50.435Z</time></trkpt><trkpt lat="43.07974" lon="10.610154"><ele>320.0</ele><time>2026-04-25T12:32:57.409Z</time></trkpt><trkpt lat="43.0796825" lon="10.6101891"><ele>320.2857142857143</ele><time>2026-04-25T12:33:04.459Z</time></trkpt><trkpt lat="43.0796196" lon="10.6102202"><ele>320.57142857142856</ele><time>2026-04-25T12:33:11.417Z</time></trkpt><trkpt lat="43.0795573" lon="10.6102608"><ele>320.8571428571429</ele><time>2026-04-25T12:33:17.407Z</time></trkpt><trkpt lat="43.0794879" lon="10.6102866"><ele>321.1428571428571</ele><time>2026-04-25T12:33:24.461Z</time></trkpt><trkpt lat="43.0794226" lon="10.6102907"><ele>321.42857142857144</ele><time>2026-04-25T12:33:29.461Z</time></trkpt><trkpt lat="43.0793475" lon="10.6102942"><ele>321.7142857142857</ele><time>2026-04-25T12:33:46.422Z</time></trkpt><trkpt lat="43.0792781" lon="10.6103422"><ele>322.0</ele><time>2026-04-25T12:33:52.407Z</time></trkpt><trkpt lat="43.0791976" lon="10.6104592"><ele>322.0</ele><time>2026-04-25T12:35:09.448Z</time></trkpt><trkpt lat="43.0791529" lon="10.6105289"><ele>322.0</ele><time>2026-04-25T12:35:17.412Z</time></trkpt><trkpt lat="43.0791302" lon="10.61061"><ele>322.0</ele><time>2026-04-25T12:35:32.51Z</time></trkpt><trkpt lat="43.0791883" lon="10.6106501"><ele>322.0</ele><time>2026-04-25T12:36:30.461Z</time></trkpt><trkpt lat="43.079228" lon="10.6107178"><ele>322.0</ele><time>2026-04-25T12:36:46.441Z</time></trkpt><trkpt lat="43.0792595" lon="10.6108067"><ele>322.0</ele><time>2026-04-25T12:37:42.428Z</time></trkpt><trkpt lat="43.0792176" lon="10.6107047"><ele>322.0</ele><time>2026-04-25T12:38:26.458Z</time></trkpt><trkpt lat="43.0791716" lon="10.6106297"><ele>322.0</ele><time>2026-04-25T12:38:31.472Z</time></trkpt><trkpt lat="43.079107" lon="10.6106056"><ele>322.0</ele><time>2026-04-25T12:38:39.53Z</time></trkpt><trkpt lat="43.0790426" lon="10.6106234"><ele>322.0</ele><time>2026-04-25T12:38:48.527Z</time></trkpt><trkpt lat="43.078976" lon="10.610639"><ele>322.0</ele><time>2026-04-25T12:39:05.529Z</time></trkpt><trkpt lat="43.0789264" lon="10.6107066"><ele>322.0</ele><time>2026-04-25T12:39:15.491Z</time></trkpt><trkpt lat="43.0788617" lon="10.6106921"><ele>322.0</ele><time>2026-04-25T12:39:28.426Z</time></trkpt><trkpt lat="43.0787996" lon="10.6106715"><ele>322.0</ele><time>2026-04-25T12:40:18.435Z</time></trkpt><trkpt lat="43.0787071" lon="10.610689"><ele>319.42857142857144</ele><time>2026-04-25T12:41:31.495Z</time></trkpt><trkpt lat="43.0786631" lon="10.6107514"><ele>316.8571428571429</ele><time>2026-04-25T12:41:57.407Z</time></trkpt><trkpt lat="43.0786691" lon="10.610842"><ele>314.2857142857143</ele><time>2026-04-25T12:42:09.41Z</time></trkpt><trkpt lat="43.0786908" lon="10.6109239"><ele>311.7142857142857</ele><time>2026-04-25T12:42:20.42Z</time></trkpt><trkpt lat="43.0787332" lon="10.6109971"><ele>309.14285714285717</ele><time>2026-04-25T12:42:31.405Z</time></trkpt><trkpt lat="43.0787769" lon="10.6110618"><ele>306.57142857142856</ele><time>2026-04-25T12:42:40.424Z</time></trkpt><trkpt lat="43.0788315" lon="10.6111059"><ele>304.0</ele><time>2026-04-25T12:42:47.491Z</time></trkpt><trkpt lat="43.0789371" lon="10.6111604"><ele>304.85714285714283</ele><time>2026-04-25T12:44:23.491Z</time></trkpt><trkpt lat="43.0790139" lon="10.6112201"><ele>305.7142857142857</ele><time>2026-04-25T12:44:48.497Z</time></trkpt><trkpt lat="43.0790791" lon="10.6112488"><ele>306.57142857142856</ele><time>2026-04-25T12:45:31.443Z</time></trkpt><trkpt lat="43.0791358" lon="10.6113195"><ele>307.42857142857144</ele><time>2026-04-25T12:45:45.468Z</time></trkpt><trkpt lat="43.0791495" lon="10.6114055"><ele>308.2857142857143</ele><time>2026-04-25T12:45:53.509Z</time></trkpt><trkpt lat="43.0791792" lon="10.6114827"><ele>309.14285714285717</ele><time>2026-04-25T12:46:04.275Z</time></trkpt><trkpt lat="43.0792008" lon="10.6115789"><ele>310.0</ele><time>2026-04-25T12:46:15.476Z</time></trkpt><trkpt lat="43.0792307" lon="10.6117169"><ele>310.0</ele><time>2026-04-25T12:47:24.516Z</time></trkpt><trkpt lat="43.0791966" lon="10.6117914"><ele>310.0</ele><time>2026-04-25T12:47:31.474Z</time></trkpt><trkpt lat="43.0791986" lon="10.6118817"><ele>310.0</ele><time>2026-04-25T12:47:40.498Z</time></trkpt><trkpt lat="43.0792102" lon="10.611968"><ele>310.0</ele><time>2026-04-25T12:47:51.479Z</time></trkpt><trkpt lat="43.0792344" lon="10.6120582"><ele>310.0</ele><time>2026-04-25T12:47:59.417Z</time></trkpt><trkpt lat="43.079261" lon="10.6121408"><ele>310.0</ele><time>2026-04-25T12:48:06.47Z</time></trkpt><trkpt lat="43.0792905" lon="10.6122306"><ele>310.0</ele><time>2026-04-25T12:48:14.42Z</time></trkpt><trkpt lat="43.0793057" lon="10.6123196"><ele>310.57142857142856</ele><time>2026-04-25T12:48:22.466Z</time></trkpt><trkpt lat="43.0793024" lon="10.6124079"><ele>311.1428571428571</ele><time>2026-04-25T12:48:30.512Z</time></trkpt><trkpt lat="43.0793198" lon="10.6124939"><ele>311.71428571428567</ele><time>2026-04-25T12:48:38.43Z</time></trkpt><trkpt lat="43.0793553" lon="10.6125781"><ele>312.2857142857143</ele><time>2026-04-25T12:48:46.493Z</time></trkpt><trkpt lat="43.0793766" lon="10.6126612"><ele>312.85714285714283</ele><time>2026-04-25T12:48:53.508Z</time></trkpt><trkpt lat="43.0793924" lon="10.6127509"><ele>313.4285714285714</ele><time>2026-04-25T12:49:04.433Z</time></trkpt><trkpt lat="43.0793714" lon="10.6128413"><ele>314.0</ele><time>2026-04-25T12:49:12.478Z</time></trkpt><trkpt lat="43.0793628" lon="10.6129271"><ele>313.99999999999994</ele><time>2026-04-25T12:49:23.071Z</time></trkpt><trkpt lat="43.0793816" lon="10.6130108"><ele>314.0</ele><time>2026-04-25T12:49:34.441Z</time></trkpt><trkpt lat="43.0793623" lon="10.6131114"><ele>314.0</ele><time>2026-04-25T12:49:49.431Z</time></trkpt><trkpt lat="43.0793284" lon="10.6131957"><ele>314.0</ele><time>2026-04-25T12:49:58.391Z</time></trkpt><trkpt lat="43.0792699" lon="10.6132749"><ele>314.0</ele><time>2026-04-25T12:50:08.428Z</time></trkpt><trkpt lat="43.0792003" lon="10.6133154"><ele>313.99999999999994</ele><time>2026-04-25T12:50:13.471Z</time></trkpt><trkpt lat="43.0791338" lon="10.6133405"><ele>314.0</ele><time>2026-04-25T12:50:18.473Z</time></trkpt><trkpt lat="43.0790702" lon="10.6133759"><ele>311.4285714285714</ele><time>2026-04-25T12:50:23.474Z</time></trkpt><trkpt lat="43.0790174" lon="10.6134371"><ele>308.85714285714283</ele><time>2026-04-25T12:50:29.454Z</time></trkpt><trkpt lat="43.0789691" lon="10.6135013"><ele>306.2857142857143</ele><time>2026-04-25T12:50:38.581Z</time></trkpt><trkpt lat="43.0788999" lon="10.6135321"><ele>303.71428571428567</ele><time>2026-04-25T12:50:44.453Z</time></trkpt><trkpt lat="43.0788242" lon="10.6135567"><ele>301.1428571428571</ele><time>2026-04-25T12:50:52.409Z</time></trkpt><trkpt lat="43.0787566" lon="10.6135536"><ele>298.57142857142856</ele><time>2026-04-25T12:50:58.389Z</time></trkpt><trkpt lat="43.0786905" lon="10.6135439"><ele>296.0</ele><time>2026-04-25T12:51:06.418Z</time></trkpt><trkpt lat="43.0786266" lon="10.6135705"><ele>296.0</ele><time>2026-04-25T12:51:17.467Z</time></trkpt><trkpt lat="43.0785606" lon="10.6135476"><ele>296.0</ele><time>2026-04-25T12:51:27.512Z</time></trkpt><trkpt lat="43.0784942" lon="10.6135316"><ele>296.0</ele><time>2026-04-25T12:51:33.494Z</time></trkpt><trkpt lat="43.0784266" lon="10.6135043"><ele>296.0</ele><time>2026-04-25T12:51:40.39Z</time></trkpt><trkpt lat="43.0783613" lon="10.613481"><ele>296.0</ele><time>2026-04-25T12:51:52.413Z</time></trkpt><trkpt lat="43.0783036" lon="10.6134375"><ele>296.0</ele><time>2026-04-25T12:52:02.407Z</time></trkpt><trkpt lat="43.0782779" lon="10.6133539"><ele>296.0</ele><time>2026-04-25T12:52:08.446Z</time></trkpt><trkpt lat="43.0782568" lon="10.6132694"><ele>292.0</ele><time>2026-04-25T12:52:13.632Z</time></trkpt><trkpt lat="43.0782328" lon="10.6131822"><ele>288.0</ele><time>2026-04-25T12:52:22.422Z</time></trkpt><trkpt lat="43.0781859" lon="10.6131166"><ele>284.0</ele><time>2026-04-25T12:52:31.445Z</time></trkpt><trkpt lat="43.0781204" lon="10.6130919"><ele>280.0</ele><time>2026-04-25T12:52:46.507Z</time></trkpt><trkpt lat="43.0780551" lon="10.6130849"><ele>276.0</ele><time>2026-04-25T12:53:00.475Z</time></trkpt><trkpt lat="43.077988" lon="10.6130942"><ele>272.0</ele><time>2026-04-25T12:53:09.499Z</time></trkpt><trkpt lat="43.0779172" lon="10.613179"><ele>268.0</ele><time>2026-04-25T12:53:59.208Z</time></trkpt><trkpt lat="43.0778728" lon="10.6132449"><ele>268.0</ele><time>2026-04-25T12:54:07.45Z</time></trkpt><trkpt lat="43.0778608" lon="10.6133385"><ele>268.0</ele><time>2026-04-25T12:54:19.387Z</time></trkpt><trkpt lat="43.0778659" lon="10.6134275"><ele>268.0</ele><time>2026-04-25T12:54:25.498Z</time></trkpt><trkpt lat="43.0778808" lon="10.6135181"><ele>268.0</ele><time>2026-04-25T12:54:33.436Z</time></trkpt><trkpt lat="43.077918" lon="10.6136095"><ele>268.0</ele><time>2026-04-25T12:54:39.415Z</time></trkpt><trkpt lat="43.0779624" lon="10.6136788"><ele>268.0</ele><time>2026-04-25T12:54:46.472Z</time></trkpt><trkpt lat="43.0779857" lon="10.6137751"><ele>268.0</ele><time>2026-04-25T12:55:02.466Z</time></trkpt><trkpt lat="43.0780082" lon="10.6138614"><ele>265.42857142857144</ele><time>2026-04-25T12:55:10.468Z</time></trkpt><trkpt lat="43.0780503" lon="10.6139451"><ele>262.85714285714283</ele><time>2026-04-25T12:55:25.515Z</time></trkpt><trkpt lat="43.0780549" lon="10.6140324"><ele>260.2857142857143</ele><time>2026-04-25T12:55:40.41Z</time></trkpt><trkpt lat="43.0780665" lon="10.6141269"><ele>257.7142857142857</ele><time>2026-04-25T12:55:49.435Z</time></trkpt><trkpt lat="43.0781205" lon="10.6141798"><ele>255.14285714285717</ele><time>2026-04-25T12:55:54.436Z</time></trkpt><trkpt lat="43.0781777" lon="10.6142258"><ele>252.57142857142856</ele><time>2026-04-25T12:56:01.503Z</time></trkpt><trkpt lat="43.0782139" lon="10.614153"><ele>250.0</ele><time>2026-04-25T12:57:50.454Z</time></trkpt><trkpt lat="43.0782072" lon="10.6142528"><ele>249.99999999999997</ele><time>2026-04-25T12:58:42.406Z</time></trkpt><trkpt lat="43.0781201" lon="10.6143217"><ele>250.0</ele><time>2026-04-25T13:00:20.476Z</time></trkpt><trkpt lat="43.0780779" lon="10.6144029"><ele>250.0</ele><time>2026-04-25T13:00:26.455Z</time></trkpt><trkpt lat="43.0780868" lon="10.6144969"><ele>250.0</ele><time>2026-04-25T13:00:35.478Z</time></trkpt><trkpt lat="43.0781112" lon="10.6145924"><ele>249.99999999999997</ele><time>2026-04-25T13:00:41.456Z</time></trkpt><trkpt lat="43.0781603" lon="10.6146639"><ele>250.0</ele><time>2026-04-25T13:00:47.435Z</time></trkpt><trkpt lat="43.0781956" lon="10.6147407"><ele>248.14285714285714</ele><time>2026-04-25T13:00:53.426Z</time></trkpt><trkpt lat="43.0782346" lon="10.6148219"><ele>246.28571428571428</ele><time>2026-04-25T13:00:59.502Z</time></trkpt><trkpt lat="43.0782637" lon="10.6149003"><ele>244.42857142857142</ele><time>2026-04-25T13:01:05.481Z</time></trkpt><trkpt lat="43.0783108" lon="10.6149638"><ele>242.57142857142856</ele><time>2026-04-25T13:02:09.509Z</time></trkpt><trkpt lat="43.0783336" lon="10.61505"><ele>240.71428571428572</ele><time>2026-04-25T13:02:13.449Z</time></trkpt><trkpt lat="43.0783664" lon="10.6151355"><ele>238.85714285714283</ele><time>2026-04-25T13:02:20.488Z</time></trkpt><trkpt lat="43.0784118" lon="10.6151983"><ele>236.99999999999997</ele><time>2026-04-25T13:02:28.424Z</time></trkpt><trkpt lat="43.0784385" lon="10.6152794"><ele>239.85714285714283</ele><time>2026-04-25T13:02:40.491Z</time></trkpt><trkpt lat="43.0784567" lon="10.6153625"><ele>242.71428571428572</ele><time>2026-04-25T13:02:50.491Z</time></trkpt><trkpt lat="43.0784774" lon="10.6154443"><ele>245.57142857142856</ele><time>2026-04-25T13:02:57.448Z</time></trkpt><trkpt lat="43.0784902" lon="10.6155697"><ele>248.42857142857142</ele><time>2026-04-25T13:03:17.45Z</time></trkpt><trkpt lat="43.0784454" lon="10.6156378"><ele>251.28571428571428</ele><time>2026-04-25T13:03:31.53Z</time></trkpt><trkpt lat="43.0784164" lon="10.6157325"><ele>254.14285714285714</ele><time>2026-04-25T13:03:47.453Z</time></trkpt><trkpt lat="43.0783546" lon="10.6157602"><ele>257.0</ele><time>2026-04-25T13:03:55.496Z</time></trkpt><trkpt lat="43.0782944" lon="10.6157884"><ele>255.28571428571428</ele><time>2026-04-25T13:04:02.453Z</time></trkpt><trkpt lat="43.0782246" lon="10.615796"><ele>253.57142857142858</ele><time>2026-04-25T13:04:11.477Z</time></trkpt><trkpt lat="43.0781804" lon="10.6157182"><ele>251.85714285714286</ele><time>2026-04-25T13:04:18.45Z</time></trkpt><trkpt lat="43.0781356" lon="10.6156452"><ele>250.14285714285714</ele><time>2026-04-25T13:04:26.478Z</time></trkpt><trkpt lat="43.0780889" lon="10.6155708"><ele>248.42857142857144</ele><time>2026-04-25T13:04:32.455Z</time></trkpt><trkpt lat="43.0780315" lon="10.6155207"><ele>246.71428571428572</ele><time>2026-04-25T13:04:39.411Z</time></trkpt><trkpt lat="43.0779696" lon="10.6154851"><ele>245.0</ele><time>2026-04-25T13:04:48.435Z</time></trkpt><trkpt lat="43.0778933" lon="10.6154176"><ele>245.0</ele><time>2026-04-25T13:05:06.371Z</time></trkpt><trkpt lat="43.0778332" lon="10.6153696"><ele>245.0</ele><time>2026-04-25T13:05:11.481Z</time></trkpt><trkpt lat="43.0777664" lon="10.6153215"><ele>245.0</ele><time>2026-04-25T13:05:19.466Z</time></trkpt><trkpt lat="43.0777137" lon="10.6152621"><ele>245.0</ele><time>2026-04-25T13:05:26.48Z</time></trkpt><trkpt lat="43.0776615" lon="10.615211"><ele>245.0</ele><time>2026-04-25T13:05:33.437Z</time></trkpt><trkpt lat="43.077609" lon="10.615156"><ele>245.0</ele><time>2026-04-25T13:05:38.439Z</time></trkpt><trkpt lat="43.0775543" lon="10.615082"><ele>245.0</ele><time>2026-04-25T13:05:43.438Z</time></trkpt><trkpt lat="43.0775033" lon="10.6150227"><ele>243.85714285714286</ele><time>2026-04-25T13:05:50.503Z</time></trkpt><trkpt lat="43.0774431" lon="10.6149799"><ele>242.71428571428572</ele><time>2026-04-25T13:06:01.483Z</time></trkpt><trkpt lat="43.0773831" lon="10.614951"><ele>241.57142857142856</ele><time>2026-04-25T13:06:08.388Z</time></trkpt><trkpt lat="43.0773264" lon="10.6149076"><ele>240.42857142857142</ele><time>2026-04-25T13:06:21.484Z</time></trkpt><trkpt lat="43.07727" lon="10.6148469"><ele>239.28571428571428</ele><time>2026-04-25T13:06:35.506Z</time></trkpt><trkpt lat="43.0772123" lon="10.6148002"><ele>238.1428571428571</ele><time>2026-04-25T13:06:43.409Z</time></trkpt><trkpt lat="43.0771516" lon="10.6147389"><ele>236.99999999999997</ele><time>2026-04-25T13:06:53.441Z</time></trkpt><trkpt lat="43.0770834" lon="10.6147238"><ele>235.71428571428567</ele><time>2026-04-25T13:07:00.43Z</time></trkpt><trkpt lat="43.0770169" lon="10.6147105"><ele>234.42857142857142</ele><time>2026-04-25T13:07:09.53Z</time></trkpt><trkpt lat="43.0769523" lon="10.6146114"><ele>233.1428571428571</ele><time>2026-04-25T13:07:27.991Z</time></trkpt><trkpt lat="43.0768912" lon="10.6145565"><ele>231.85714285714283</ele><time>2026-04-25T13:07:33.442Z</time></trkpt><trkpt lat="43.0768214" lon="10.614528"><ele>230.57142857142856</ele><time>2026-04-25T13:07:38.451Z</time></trkpt><trkpt lat="43.0767621" lon="10.6144871"><ele>229.28571428571428</ele><time>2026-04-25T13:07:45.509Z</time></trkpt><trkpt lat="43.0767173" lon="10.6144138"><ele>228.0</ele><time>2026-04-25T13:07:53.267Z</time></trkpt><trkpt lat="43.0766781" lon="10.6143239"><ele>227.0</ele><time>2026-04-25T13:07:58.53Z</time></trkpt><trkpt lat="43.0766431" lon="10.6142472"><ele>225.99999999999997</ele><time>2026-04-25T13:08:07.465Z</time></trkpt><trkpt lat="43.0765918" lon="10.614187"><ele>225.0</ele><time>2026-04-25T13:08:12.466Z</time></trkpt><trkpt lat="43.0765248" lon="10.6141336"><ele>224.0</ele><time>2026-04-25T13:08:18.53Z</time></trkpt><trkpt lat="43.0764649" lon="10.6140946"><ele>223.0</ele><time>2026-04-25T13:08:26.411Z</time></trkpt><trkpt lat="43.0763991" lon="10.6141081"><ele>222.0</ele><time>2026-04-25T13:08:37.466Z</time></trkpt><trkpt lat="43.0763386" lon="10.6140695"><ele>221.0</ele><time>2026-04-25T13:08:43.444Z</time></trkpt><trkpt lat="43.0762822" lon="10.6140104"><ele>219.42857142857144</ele><time>2026-04-25T13:08:49.532Z</time></trkpt><trkpt lat="43.0762166" lon="10.6139776"><ele>217.85714285714286</ele><time>2026-04-25T13:08:55.51Z</time></trkpt><trkpt lat="43.0761468" lon="10.6139747"><ele>216.28571428571428</ele><time>2026-04-25T13:09:01.432Z</time></trkpt><trkpt lat="43.076083" lon="10.6139536"><ele>214.71428571428572</ele><time>2026-04-25T13:09:07.466Z</time></trkpt><trkpt lat="43.0760306" lon="10.6138971"><ele>213.14285714285714</ele><time>2026-04-25T13:09:13.368Z</time></trkpt><trkpt lat="43.0759633" lon="10.6138997"><ele>211.57142857142858</ele><time>2026-04-25T13:09:19.533Z</time></trkpt><trkpt lat="43.0758999" lon="10.6138845"><ele>210.0</ele><time>2026-04-25T13:09:25.511Z</time></trkpt><trkpt lat="43.0758481" lon="10.613835"><ele>210.0</ele><time>2026-04-25T13:09:31.426Z</time></trkpt><trkpt lat="43.0757794" lon="10.6138305"><ele>210.0</ele><time>2026-04-25T13:09:39.431Z</time></trkpt><trkpt lat="43.0757218" lon="10.6138788"><ele>210.0</ele><time>2026-04-25T13:09:44.534Z</time></trkpt><trkpt lat="43.0756606" lon="10.6139148"><ele>210.0</ele><time>2026-04-25T13:09:49.387Z</time></trkpt><trkpt lat="43.075598" lon="10.6139583"><ele>210.0</ele><time>2026-04-25T13:09:55.512Z</time></trkpt><trkpt lat="43.0755296" lon="10.6139531"><ele>210.0</ele><time>2026-04-25T13:10:02.468Z</time></trkpt><trkpt lat="43.075467" lon="10.6139171"><ele>210.0</ele><time>2026-04-25T13:10:08.37Z</time></trkpt><trkpt lat="43.075394" lon="10.613905"><ele>208.85714285714286</ele><time>2026-04-25T13:10:15.512Z</time></trkpt><trkpt lat="43.075319" lon="10.6138886"><ele>207.71428571428572</ele><time>2026-04-25T13:10:21.491Z</time></trkpt><trkpt lat="43.0752549" lon="10.6138637"><ele>206.57142857142856</ele><time>2026-04-25T13:10:26.491Z</time></trkpt><trkpt lat="43.0751897" lon="10.6138164"><ele>205.42857142857144</ele><time>2026-04-25T13:10:34.535Z</time></trkpt><trkpt lat="43.0751269" lon="10.6137897"><ele>204.28571428571428</ele><time>2026-04-25T13:10:39.536Z</time></trkpt><trkpt lat="43.0750603" lon="10.6137827"><ele>203.14285714285714</ele><time>2026-04-25T13:10:44.535Z</time></trkpt><trkpt lat="43.0749897" lon="10.6137807"><ele>202.0</ele><time>2026-04-25T13:10:51.431Z</time></trkpt><trkpt lat="43.0749243" lon="10.6137651"><ele>200.85714285714286</ele><time>2026-04-25T13:11:00.368Z</time></trkpt><trkpt lat="43.0748535" lon="10.6137643"><ele>199.71428571428572</ele><time>2026-04-25T13:11:11.494Z</time></trkpt><trkpt lat="43.0747874" lon="10.6137475"><ele>198.57142857142856</ele><time>2026-04-25T13:11:17.473Z</time></trkpt><trkpt lat="43.0747181" lon="10.6137133"><ele>197.42857142857144</ele><time>2026-04-25T13:11:23.451Z</time></trkpt><trkpt lat="43.0746442" lon="10.6136988"><ele>196.2857142857143</ele><time>2026-04-25T13:11:28.451Z</time></trkpt><trkpt lat="43.0745805" lon="10.6137012"><ele>195.14285714285714</ele><time>2026-04-25T13:11:34.538Z</time></trkpt><trkpt lat="43.0745074" lon="10.6137029"><ele>194.0</ele><time>2026-04-25T13:11:42.473Z</time></trkpt><trkpt lat="43.0744387" lon="10.6136856"><ele>194.0</ele><time>2026-04-25T13:11:49.512Z</time></trkpt><trkpt lat="43.0743734" lon="10.6136575"><ele>194.0</ele><time>2026-04-25T13:11:56.528Z</time></trkpt><trkpt lat="43.0743189" lon="10.6136097"><ele>194.0</ele><time>2026-04-25T13:12:04.431Z</time></trkpt><trkpt lat="43.0742644" lon="10.6135488"><ele>194.0</ele><time>2026-04-25T13:12:09.548Z</time></trkpt><trkpt lat="43.0741954" lon="10.6135176"><ele>194.0</ele><time>2026-04-25T13:12:15.426Z</time></trkpt><trkpt lat="43.0741277" lon="10.6135096"><ele>194.0</ele><time>2026-04-25T13:12:20.519Z</time></trkpt><trkpt lat="43.0740525" lon="10.6134846"><ele>194.0</ele><time>2026-04-25T13:12:25.407Z</time></trkpt><trkpt lat="43.0739884" lon="10.6134921"><ele>192.14285714285714</ele><time>2026-04-25T13:12:30.519Z</time></trkpt><trkpt lat="43.0739148" lon="10.6135058"><ele>190.2857142857143</ele><time>2026-04-25T13:12:36.55Z</time></trkpt><trkpt lat="43.0738434" lon="10.6134957"><ele>188.42857142857144</ele><time>2026-04-25T13:12:42.551Z</time></trkpt><trkpt lat="43.0737769" lon="10.613499"><ele>186.57142857142856</ele><time>2026-04-25T13:12:50.52Z</time></trkpt><trkpt lat="43.0737196" lon="10.6135385"><ele>184.71428571428572</ele><time>2026-04-25T13:12:56.498Z</time></trkpt><trkpt lat="43.0736644" lon="10.6136016"><ele>182.85714285714286</ele><time>2026-04-25T13:13:02.508Z</time></trkpt><trkpt lat="43.0736147" lon="10.6136546"><ele>181.0</ele><time>2026-04-25T13:13:07.432Z</time></trkpt><trkpt lat="43.0735572" lon="10.6136995"><ele>181.0</ele><time>2026-04-25T13:13:11.5Z</time></trkpt><trkpt lat="43.0734329" lon="10.6137429"><ele>181.0</ele><time>2026-04-25T13:13:15.451Z</time></trkpt><trkpt lat="43.0733671" lon="10.6137658"><ele>181.0</ele><time>2026-04-25T13:13:17.549Z</time></trkpt><trkpt lat="43.0733244" lon="10.6138396"><ele>181.0</ele><time>2026-04-25T13:13:21.501Z</time></trkpt><trkpt lat="43.0733017" lon="10.6139236"><ele>181.0</ele><time>2026-04-25T13:13:28.457Z</time></trkpt><trkpt lat="43.0733016" lon="10.6140106"><ele>181.0</ele><time>2026-04-25T13:13:36.5Z</time></trkpt><trkpt lat="43.0733066" lon="10.6141023"><ele>181.0</ele><time>2026-04-25T13:13:42.48Z</time></trkpt><trkpt lat="43.0732949" lon="10.6141916"><ele>181.0</ele><time>2026-04-25T13:13:47.479Z</time></trkpt><trkpt lat="43.0732923" lon="10.614287"><ele>181.0</ele><time>2026-04-25T13:13:53.458Z</time></trkpt><trkpt lat="43.0733042" lon="10.6143717"><ele>181.0</ele><time>2026-04-25T13:13:58.458Z</time></trkpt><trkpt lat="43.0732721" lon="10.6144565"><ele>181.0</ele><time>2026-04-25T13:14:06.49Z</time></trkpt><trkpt lat="43.0732141" lon="10.6145115"><ele>181.0</ele><time>2026-04-25T13:14:12.48Z</time></trkpt><trkpt lat="43.0731594" lon="10.6145593"><ele>181.0</ele><time>2026-04-25T13:14:20.525Z</time></trkpt><trkpt lat="43.0731295" lon="10.614636"><ele>182.71428571428572</ele><time>2026-04-25T13:14:26.55Z</time></trkpt><trkpt lat="43.0731053" lon="10.6147204"><ele>184.42857142857142</ele><time>2026-04-25T13:14:33.46Z</time></trkpt><trkpt lat="43.0730594" lon="10.614797"><ele>186.14285714285717</ele><time>2026-04-25T13:14:39.438Z</time></trkpt><trkpt lat="43.07301" lon="10.6148637"><ele>187.85714285714286</ele><time>2026-04-25T13:14:46.505Z</time></trkpt><trkpt lat="43.0729785" lon="10.6149509"><ele>189.57142857142858</ele><time>2026-04-25T13:14:53.409Z</time></trkpt><trkpt lat="43.0729617" lon="10.6150392"><ele>191.2857142857143</ele><time>2026-04-25T13:14:59.44Z</time></trkpt><trkpt lat="43.0729301" lon="10.6151192"><ele>193.0</ele><time>2026-04-25T13:15:06.506Z</time></trkpt><trkpt lat="43.0729638" lon="10.6152757"><ele>192.99999999999997</ele><time>2026-04-25T13:15:32.486Z</time></trkpt><trkpt lat="43.0729475" lon="10.6153966"><ele>193.0</ele><time>2026-04-25T13:16:56.512Z</time></trkpt><trkpt lat="43.0729695" lon="10.6152281"><ele>193.0</ele><time>2026-04-25T13:17:33.471Z</time></trkpt><trkpt lat="43.072993" lon="10.615136"><ele>193.0</ele><time>2026-04-25T13:17:35.428Z</time></trkpt><trkpt lat="43.0730294" lon="10.6150375"><ele>192.99999999999997</ele><time>2026-04-25T13:17:37.493Z</time></trkpt><trkpt lat="43.0730596" lon="10.6149408"><ele>193.0</ele><time>2026-04-25T13:17:39.45Z</time></trkpt><trkpt lat="43.073115" lon="10.61488"><ele>192.99999999999997</ele><time>2026-04-25T13:17:41.396Z</time></trkpt><trkpt lat="43.0731833" lon="10.6148033"><ele>193.0</ele><time>2026-04-25T13:17:44.397Z</time></trkpt><trkpt lat="43.0732583" lon="10.6147567"><ele>193.0</ele><time>2026-04-25T13:17:47.396Z</time></trkpt><trkpt lat="43.0733283" lon="10.6146867"><ele>193.0</ele><time>2026-04-25T13:17:50.396Z</time></trkpt><trkpt lat="43.0733533" lon="10.6145833"><ele>192.99999999999997</ele><time>2026-04-25T13:17:52.396Z</time></trkpt><trkpt lat="43.0733733" lon="10.6144683"><ele>193.0</ele><time>2026-04-25T13:17:55.396Z</time></trkpt><trkpt lat="43.0734033" lon="10.6143883"><ele>190.99999999999997</ele><time>2026-04-25T13:17:59.396Z</time></trkpt><trkpt lat="43.0733967" lon="10.6142983"><ele>189.0</ele><time>2026-04-25T13:18:02.396Z</time></trkpt><trkpt lat="43.0733933" lon="10.61421"><ele>187.0</ele><time>2026-04-25T13:18:04.396Z</time></trkpt><trkpt lat="43.07339" lon="10.614105"><ele>185.0</ele><time>2026-04-25T13:18:06.396Z</time></trkpt><trkpt lat="43.0733867" lon="10.6139783"><ele>183.0</ele><time>2026-04-25T13:18:08.396Z</time></trkpt><trkpt lat="43.0733967" lon="10.6138567"><ele>181.0</ele><time>2026-04-25T13:18:10.397Z</time></trkpt><trkpt lat="43.0734417" lon="10.6137817"><ele>181.0</ele><time>2026-04-25T13:18:12.396Z</time></trkpt><trkpt lat="43.0735083" lon="10.6137417"><ele>181.0</ele><time>2026-04-25T13:18:14.396Z</time></trkpt><trkpt lat="43.0735833" lon="10.6137017"><ele>181.0</ele><time>2026-04-25T13:18:17.396Z</time></trkpt><trkpt lat="43.0736533" lon="10.6136317"><ele>181.0</ele><time>2026-04-25T13:18:19.397Z</time></trkpt><trkpt lat="43.0736717" lon="10.613545"><ele>181.0</ele><time>2026-04-25T13:18:21.396Z</time></trkpt><trkpt lat="43.07364" lon="10.61347"><ele>181.0</ele><time>2026-04-25T13:18:23.396Z</time></trkpt><trkpt lat="43.0735717" lon="10.6134117"><ele>181.0</ele><time>2026-04-25T13:18:25.397Z</time></trkpt><trkpt lat="43.0735017" lon="10.6133817"><ele>181.0</ele><time>2026-04-25T13:18:27.396Z</time></trkpt><trkpt lat="43.0734283" lon="10.6133833"><ele>181.0</ele><time>2026-04-25T13:18:29.396Z</time></trkpt><trkpt lat="43.073335" lon="10.6134"><ele>181.0</ele><time>2026-04-25T13:18:31.395Z</time></trkpt><trkpt lat="43.0732367" lon="10.613395"><ele>181.0</ele><time>2026-04-25T13:18:33.395Z</time></trkpt><trkpt lat="43.0731067" lon="10.6133583"><ele>179.4</ele><time>2026-04-25T13:18:35.395Z</time></trkpt><trkpt lat="43.0730033" lon="10.613345"><ele>177.8</ele><time>2026-04-25T13:18:37.395Z</time></trkpt><trkpt lat="43.0728967" lon="10.6132933"><ele>176.20000000000002</ele><time>2026-04-25T13:18:39.396Z</time></trkpt><trkpt lat="43.0728383" lon="10.6132567"><ele>174.60000000000002</ele><time>2026-04-25T13:18:40.396Z</time></trkpt><trkpt lat="43.0727733" lon="10.6131867"><ele>173.0</ele><time>2026-04-25T13:18:42.395Z</time></trkpt><trkpt lat="43.0726783" lon="10.613115"><ele>173.0</ele><time>2026-04-25T13:18:44.396Z</time></trkpt><trkpt lat="43.072595" lon="10.6130283"><ele>173.0</ele><time>2026-04-25T13:18:46.395Z</time></trkpt><trkpt lat="43.07249" lon="10.6129433"><ele>173.0</ele><time>2026-04-25T13:18:48.395Z</time></trkpt><trkpt lat="43.0724033" lon="10.612875"><ele>173.0</ele><time>2026-04-25T13:18:49.396Z</time></trkpt><trkpt lat="43.0723367" lon="10.6128033"><ele>173.0</ele><time>2026-04-25T13:18:50.396Z</time></trkpt><trkpt lat="43.0722567" lon="10.6127067"><ele>170.8</ele><time>2026-04-25T13:18:51.396Z</time></trkpt><trkpt lat="43.0721767" lon="10.6126217"><ele>168.60000000000002</ele><time>2026-04-25T13:18:52.395Z</time></trkpt><trkpt lat="43.0721067" lon="10.6125383"><ele>166.39999999999998</ele><time>2026-04-25T13:18:53.395Z</time></trkpt><trkpt lat="43.072035" lon="10.6124533"><ele>164.2</ele><time>2026-04-25T13:18:54.395Z</time></trkpt><trkpt lat="43.0719767" lon="10.61237"><ele>162.0</ele><time>2026-04-25T13:18:55.396Z</time></trkpt><trkpt lat="43.0719167" lon="10.6122983"><ele>162.0</ele><time>2026-04-25T13:18:56.395Z</time></trkpt><trkpt lat="43.07186" lon="10.6122217"><ele>162.0</ele><time>2026-04-25T13:18:57.395Z</time></trkpt><trkpt lat="43.0718067" lon="10.6121483"><ele>162.0</ele><time>2026-04-25T13:18:58.395Z</time></trkpt><trkpt lat="43.07176" lon="10.6120683"><ele>162.0</ele><time>2026-04-25T13:18:59.395Z</time></trkpt><trkpt lat="43.0717117" lon="10.61199"><ele>162.0</ele><time>2026-04-25T13:19:00.396Z</time></trkpt><trkpt lat="43.0716617" lon="10.6119267"><ele>162.0</ele><time>2026-04-25T13:19:01.395Z</time></trkpt><trkpt lat="43.0716133" lon="10.6118633"><ele>162.0</ele><time>2026-04-25T13:19:02.395Z</time></trkpt><trkpt lat="43.0715483" lon="10.61175"><ele>160.4</ele><time>2026-04-25T13:19:04.395Z</time></trkpt><trkpt lat="43.07148" lon="10.611665"><ele>158.79999999999998</ele><time>2026-04-25T13:19:06.395Z</time></trkpt><trkpt lat="43.0713933" lon="10.6115767"><ele>157.2</ele><time>2026-04-25T13:19:08.396Z</time></trkpt><trkpt lat="43.071315" lon="10.61147"><ele>155.6</ele><time>2026-04-25T13:19:10.395Z</time></trkpt><trkpt lat="43.0712483" lon="10.6113533"><ele>154.0</ele><time>2026-04-25T13:19:12.395Z</time></trkpt><trkpt lat="43.07121" lon="10.6112783"><ele>154.0</ele><time>2026-04-25T13:19:13.395Z</time></trkpt><trkpt lat="43.0711433" lon="10.6111617"><ele>154.0</ele><time>2026-04-25T13:19:15.396Z</time></trkpt><trkpt lat="43.0710767" lon="10.6110317"><ele>154.0</ele><time>2026-04-25T13:19:17.396Z</time></trkpt><trkpt lat="43.07103" lon="10.61097"><ele>154.0</ele><time>2026-04-25T13:19:18.395Z</time></trkpt><trkpt lat="43.0709633" lon="10.61086"><ele>154.0</ele><time>2026-04-25T13:19:20.395Z</time></trkpt><trkpt lat="43.0708867" lon="10.6107533"><ele>153.2</ele><time>2026-04-25T13:19:22.396Z</time></trkpt><trkpt lat="43.0708333" lon="10.6106567"><ele>152.4</ele><time>2026-04-25T13:19:24.395Z</time></trkpt><trkpt lat="43.0707017" lon="10.6105983"><ele>151.6</ele><time>2026-04-25T13:19:43.396Z</time></trkpt><trkpt lat="43.0706267" lon="10.6106883"><ele>150.8</ele><time>2026-04-25T13:19:45.395Z</time></trkpt><trkpt lat="43.0705567" lon="10.6108067"><ele>150.0</ele><time>2026-04-25T13:19:47.395Z</time></trkpt><trkpt lat="43.070515" lon="10.61088"><ele>150.33333333333334</ele><time>2026-04-25T13:19:48.396Z</time></trkpt><trkpt lat="43.070465" lon="10.61096"><ele>150.66666666666666</ele><time>2026-04-25T13:19:49.395Z</time></trkpt><trkpt lat="43.0704167" lon="10.611055"><ele>151.0</ele><time>2026-04-25T13:19:50.396Z</time></trkpt><trkpt lat="43.07037" lon="10.6111517"><ele>151.33333333333331</ele><time>2026-04-25T13:19:51.395Z</time></trkpt><trkpt lat="43.0703183" lon="10.6112433"><ele>151.66666666666666</ele><time>2026-04-25T13:19:52.396Z</time></trkpt><trkpt lat="43.07027" lon="10.61133"><ele>152.0</ele><time>2026-04-25T13:19:53.396Z</time></trkpt><trkpt lat="43.0702217" lon="10.611425"><ele>152.0</ele><time>2026-04-25T13:19:54.396Z</time></trkpt><trkpt lat="43.07017" lon="10.6115183"><ele>152.0</ele><time>2026-04-25T13:19:55.396Z</time></trkpt><trkpt lat="43.070105" lon="10.6116117"><ele>152.0</ele><time>2026-04-25T13:19:56.395Z</time></trkpt><trkpt lat="43.0700433" lon="10.61171"><ele>152.0</ele><time>2026-04-25T13:19:57.395Z</time></trkpt><trkpt lat="43.0699783" lon="10.6118067"><ele>152.0</ele><time>2026-04-25T13:19:58.395Z</time></trkpt><trkpt lat="43.06991" lon="10.6119067"><ele>152.6</ele><time>2026-04-25T13:19:59.396Z</time></trkpt><trkpt lat="43.0698317" lon="10.6119967"><ele>153.2</ele><time>2026-04-25T13:20:00.396Z</time></trkpt><trkpt lat="43.0697417" lon="10.6120883"><ele>153.8</ele><time>2026-04-25T13:20:01.396Z</time></trkpt><trkpt lat="43.0696483" lon="10.612185"><ele>154.4</ele><time>2026-04-25T13:20:02.395Z</time></trkpt><trkpt lat="43.0695533" lon="10.61228"><ele>155.0</ele><time>2026-04-25T13:20:03.395Z</time></trkpt><trkpt lat="43.069465" lon="10.6123767"><ele>155.0</ele><time>2026-04-25T13:20:04.395Z</time></trkpt><trkpt lat="43.0693783" lon="10.6124733"><ele>155.0</ele><time>2026-04-25T13:20:05.395Z</time></trkpt><trkpt lat="43.0692817" lon="10.6125617"><ele>155.0</ele><time>2026-04-25T13:20:06.395Z</time></trkpt><trkpt lat="43.0691883" lon="10.612655"><ele>155.0</ele><time>2026-04-25T13:20:07.396Z</time></trkpt><trkpt lat="43.0690967" lon="10.612755"><ele>155.4</ele><time>2026-04-25T13:20:08.395Z</time></trkpt><trkpt lat="43.069005" lon="10.6128567"><ele>155.8</ele><time>2026-04-25T13:20:09.396Z</time></trkpt><trkpt lat="43.0689183" lon="10.612955"><ele>156.2</ele><time>2026-04-25T13:20:10.395Z</time></trkpt><trkpt lat="43.0688283" lon="10.6130483"><ele>156.6</ele><time>2026-04-25T13:20:11.395Z</time></trkpt><trkpt lat="43.0687417" lon="10.6131317"><ele>157.0</ele><time>2026-04-25T13:20:12.395Z</time></trkpt><trkpt lat="43.0686483" lon="10.6132283"><ele>157.0</ele><time>2026-04-25T13:20:13.395Z</time></trkpt><trkpt lat="43.0685517" lon="10.6133233"><ele>157.0</ele><time>2026-04-25T13:20:14.396Z</time></trkpt><trkpt lat="43.0684567" lon="10.6134083"><ele>157.0</ele><time>2026-04-25T13:20:15.395Z</time></trkpt><trkpt lat="43.0683517" lon="10.6134817"><ele>157.0</ele><time>2026-04-25T13:20:16.395Z</time></trkpt><trkpt lat="43.0682483" lon="10.6135483"><ele>158.5</ele><time>2026-04-25T13:20:17.395Z</time></trkpt><trkpt lat="43.068145" lon="10.6136117"><ele>160.0</ele><time>2026-04-25T13:20:18.395Z</time></trkpt><trkpt lat="43.0680383" lon="10.6136833"><ele>161.5</ele><time>2026-04-25T13:20:19.395Z</time></trkpt><trkpt lat="43.0679317" lon="10.61375"><ele>163.0</ele><time>2026-04-25T13:20:20.395Z</time></trkpt><trkpt lat="43.067825" lon="10.6138283"><ele>163.0</ele><time>2026-04-25T13:20:21.395Z</time></trkpt><trkpt lat="43.0677233" lon="10.6138983"><ele>163.0</ele><time>2026-04-25T13:20:22.395Z</time></trkpt><trkpt lat="43.0676233" lon="10.6139633"><ele>163.0</ele><time>2026-04-25T13:20:23.395Z</time></trkpt><trkpt lat="43.0675217" lon="10.6140333"><ele>163.0</ele><time>2026-04-25T13:20:24.395Z</time></trkpt><trkpt lat="43.0674167" lon="10.6141067"><ele>163.25</ele><time>2026-04-25T13:20:25.395Z</time></trkpt><trkpt lat="43.0673133" lon="10.6141883"><ele>163.5</ele><time>2026-04-25T13:20:26.395Z</time></trkpt><trkpt lat="43.0672083" lon="10.6142633"><ele>163.75</ele><time>2026-04-25T13:20:27.395Z</time></trkpt><trkpt lat="43.0671067" lon="10.6143417"><ele>164.0</ele><time>2026-04-25T13:20:28.395Z</time></trkpt><trkpt lat="43.0670083" lon="10.614405"><ele>164.0</ele><time>2026-04-25T13:20:29.395Z</time></trkpt><trkpt lat="43.066905" lon="10.6144633"><ele>164.0</ele><time>2026-04-25T13:20:30.396Z</time></trkpt><trkpt lat="43.0667933" lon="10.6145083"><ele>164.0</ele><time>2026-04-25T13:20:31.395Z</time></trkpt><trkpt lat="43.0666717" lon="10.6145467"><ele>164.0</ele><time>2026-04-25T13:20:32.395Z</time></trkpt><trkpt lat="43.0665533" lon="10.6145767"><ele>165.75</ele><time>2026-04-25T13:20:33.395Z</time></trkpt><trkpt lat="43.0664267" lon="10.6146017"><ele>167.5</ele><time>2026-04-25T13:20:34.395Z</time></trkpt><trkpt lat="43.0663083" lon="10.61462"><ele>169.25</ele><time>2026-04-25T13:20:35.395Z</time></trkpt><trkpt lat="43.06617" lon="10.6146533"><ele>171.0</ele><time>2026-04-25T13:20:36.395Z</time></trkpt><trkpt lat="43.066035" lon="10.614665"><ele>171.0</ele><time>2026-04-25T13:20:37.395Z</time></trkpt><trkpt lat="43.0659" lon="10.6146767"><ele>171.0</ele><time>2026-04-25T13:20:38.396Z</time></trkpt><trkpt lat="43.0657633" lon="10.6146917"><ele>171.0</ele><time>2026-04-25T13:20:39.396Z</time></trkpt><trkpt lat="43.0656233" lon="10.6147017"><ele>171.0</ele><time>2026-04-25T13:20:40.395Z</time></trkpt><trkpt lat="43.065485" lon="10.61471"><ele>172.0</ele><time>2026-04-25T13:20:41.395Z</time></trkpt><trkpt lat="43.0653417" lon="10.61472"><ele>173.0</ele><time>2026-04-25T13:20:42.396Z</time></trkpt><trkpt lat="43.0651983" lon="10.614725"><ele>174.0</ele><time>2026-04-25T13:20:43.396Z</time></trkpt><trkpt lat="43.0650617" lon="10.61473"><ele>175.0</ele><time>2026-04-25T13:20:44.396Z</time></trkpt><trkpt lat="43.0649317" lon="10.6147283"><ele>175.5</ele><time>2026-04-25T13:20:45.396Z</time></trkpt><trkpt lat="43.0648033" lon="10.6147317"><ele>176.0</ele><time>2026-04-25T13:20:46.395Z</time></trkpt><trkpt lat="43.0646733" lon="10.614745"><ele>176.5</ele><time>2026-04-25T13:20:47.396Z</time></trkpt><trkpt lat="43.0645383" lon="10.6147583"><ele>177.0</ele><time>2026-04-25T13:20:48.395Z</time></trkpt><trkpt lat="43.0644017" lon="10.614775"><ele>177.0</ele><time>2026-04-25T13:20:49.395Z</time></trkpt><trkpt lat="43.0642733" lon="10.614805"><ele>177.0</ele><time>2026-04-25T13:20:50.395Z</time></trkpt><trkpt lat="43.0641367" lon="10.6148417"><ele>177.0</ele><time>2026-04-25T13:20:51.395Z</time></trkpt><trkpt lat="43.0640083" lon="10.6148817"><ele>177.0</ele><time>2026-04-25T13:20:52.395Z</time></trkpt><trkpt lat="43.06387" lon="10.6149333"><ele>178.5</ele><time>2026-04-25T13:20:53.396Z</time></trkpt><trkpt lat="43.0637367" lon="10.6149833"><ele>180.0</ele><time>2026-04-25T13:20:54.395Z</time></trkpt><trkpt lat="43.0636017" lon="10.615035"><ele>181.5</ele><time>2026-04-25T13:20:55.395Z</time></trkpt><trkpt lat="43.0634717" lon="10.6150833"><ele>183.0</ele><time>2026-04-25T13:20:56.396Z</time></trkpt><trkpt lat="43.06335" lon="10.61513"><ele>185.8</ele><time>2026-04-25T13:20:57.395Z</time></trkpt><trkpt lat="43.0632383" lon="10.6151717"><ele>188.60000000000002</ele><time>2026-04-25T13:20:58.396Z</time></trkpt><trkpt lat="43.0631367" lon="10.61521"><ele>191.39999999999998</ele><time>2026-04-25T13:20:59.396Z</time></trkpt><trkpt lat="43.06304" lon="10.615235"><ele>194.2</ele><time>2026-04-25T13:21:00.395Z</time></trkpt><trkpt lat="43.06295" lon="10.6152417"><ele>197.0</ele><time>2026-04-25T13:21:01.395Z</time></trkpt><trkpt lat="43.0628467" lon="10.6152417"><ele>197.0</ele><time>2026-04-25T13:21:02.396Z</time></trkpt><trkpt lat="43.0627433" lon="10.6152433"><ele>197.0</ele><time>2026-04-25T13:21:03.395Z</time></trkpt><trkpt lat="43.0626483" lon="10.6152317"><ele>197.0</ele><time>2026-04-25T13:21:04.396Z</time></trkpt><trkpt lat="43.06256" lon="10.6152167"><ele>197.0</ele><time>2026-04-25T13:21:05.395Z</time></trkpt><trkpt lat="43.0624733" lon="10.6151833"><ele>197.0</ele><time>2026-04-25T13:21:06.395Z</time></trkpt><trkpt lat="43.06239" lon="10.615145"><ele>197.39999999999998</ele><time>2026-04-25T13:21:07.396Z</time></trkpt><trkpt lat="43.06229" lon="10.6151217"><ele>197.79999999999998</ele><time>2026-04-25T13:21:08.395Z</time></trkpt><trkpt lat="43.0621983" lon="10.6150867"><ele>198.2</ele><time>2026-04-25T13:21:09.396Z</time></trkpt><trkpt lat="43.0620967" lon="10.6150467"><ele>198.6</ele><time>2026-04-25T13:21:10.396Z</time></trkpt><trkpt lat="43.0620033" lon="10.615015"><ele>199.0</ele><time>2026-04-25T13:21:11.395Z</time></trkpt><trkpt lat="43.0619117" lon="10.6149717"><ele>199.0</ele><time>2026-04-25T13:21:12.395Z</time></trkpt><trkpt lat="43.061815" lon="10.6149267"><ele>199.0</ele><time>2026-04-25T13:21:13.396Z</time></trkpt><trkpt lat="43.0617233" lon="10.61489"><ele>199.0</ele><time>2026-04-25T13:21:14.395Z</time></trkpt><trkpt lat="43.0616267" lon="10.614855"><ele>199.0</ele><time>2026-04-25T13:21:15.396Z</time></trkpt><trkpt lat="43.0615383" lon="10.6148167"><ele>199.0</ele><time>2026-04-25T13:21:16.395Z</time></trkpt><trkpt lat="43.061445" lon="10.6147883"><ele>201.39999999999998</ele><time>2026-04-25T13:21:17.395Z</time></trkpt><trkpt lat="43.0613533" lon="10.61476"><ele>203.8</ele><time>2026-04-25T13:21:18.395Z</time></trkpt><trkpt lat="43.06126" lon="10.6147283"><ele>206.2</ele><time>2026-04-25T13:21:19.395Z</time></trkpt><trkpt lat="43.06117" lon="10.6146917"><ele>208.60000000000002</ele><time>2026-04-25T13:21:20.395Z</time></trkpt><trkpt lat="43.061085" lon="10.6146483"><ele>211.0</ele><time>2026-04-25T13:21:21.395Z</time></trkpt><trkpt lat="43.0610033" lon="10.6146017"><ele>210.99999999999997</ele><time>2026-04-25T13:21:22.395Z</time></trkpt><trkpt lat="43.06092" lon="10.614575"><ele>211.0</ele><time>2026-04-25T13:21:23.396Z</time></trkpt><trkpt lat="43.0608433" lon="10.6145367"><ele>211.0</ele><time>2026-04-25T13:21:24.395Z</time></trkpt><trkpt lat="43.060765" lon="10.6145017"><ele>211.0</ele><time>2026-04-25T13:21:25.395Z</time></trkpt><trkpt lat="43.0607033" lon="10.6144767"><ele>210.99999999999997</ele><time>2026-04-25T13:21:26.396Z</time></trkpt><trkpt lat="43.060575" lon="10.61446"><ele>211.0</ele><time>2026-04-25T13:21:28.395Z</time></trkpt><trkpt lat="43.0605067" lon="10.6144567"><ele>211.28571428571428</ele><time>2026-04-25T13:21:29.395Z</time></trkpt><trkpt lat="43.0604367" lon="10.6144433"><ele>211.57142857142858</ele><time>2026-04-25T13:21:30.395Z</time></trkpt><trkpt lat="43.0603617" lon="10.6144333"><ele>211.85714285714283</ele><time>2026-04-25T13:21:31.396Z</time></trkpt><trkpt lat="43.0602867" lon="10.61442"><ele>212.14285714285714</ele><time>2026-04-25T13:21:32.395Z</time></trkpt><trkpt lat="43.0602117" lon="10.6144167"><ele>212.42857142857142</ele><time>2026-04-25T13:21:33.396Z</time></trkpt><trkpt lat="43.06014" lon="10.6144067"><ele>212.7142857142857</ele><time>2026-04-25T13:21:34.395Z</time></trkpt><trkpt lat="43.060065" lon="10.6143917"><ele>213.0</ele><time>2026-04-25T13:21:35.395Z</time></trkpt><trkpt lat="43.059985" lon="10.614365"><ele>211.33333333333334</ele><time>2026-04-25T13:21:36.395Z</time></trkpt><trkpt lat="43.0598983" lon="10.6143433"><ele>209.66666666666669</ele><time>2026-04-25T13:21:37.395Z</time></trkpt><trkpt lat="43.059805" lon="10.614335"><ele>208.0</ele><time>2026-04-25T13:21:38.395Z</time></trkpt><trkpt lat="43.05972" lon="10.6143317"><ele>206.33333333333334</ele><time>2026-04-25T13:21:39.395Z</time></trkpt><trkpt lat="43.059635" lon="10.6143217"><ele>204.66666666666669</ele><time>2026-04-25T13:21:40.395Z</time></trkpt><trkpt lat="43.0595517" lon="10.6143217"><ele>203.0</ele><time>2026-04-25T13:21:41.395Z</time></trkpt><trkpt lat="43.0594667" lon="10.614315"><ele>203.0</ele><time>2026-04-25T13:21:42.396Z</time></trkpt><trkpt lat="43.0593683" lon="10.6143133"><ele>203.0</ele><time>2026-04-25T13:21:43.395Z</time></trkpt><trkpt lat="43.0592583" lon="10.6143083"><ele>203.0</ele><time>2026-04-25T13:21:44.395Z</time></trkpt><trkpt lat="43.05916" lon="10.614315"><ele>203.0</ele><time>2026-04-25T13:21:45.396Z</time></trkpt><trkpt lat="43.0590533" lon="10.6143117"><ele>203.0</ele><time>2026-04-25T13:21:46.396Z</time></trkpt><trkpt lat="43.05895" lon="10.6143117"><ele>202.60000000000002</ele><time>2026-04-25T13:21:47.395Z</time></trkpt><trkpt lat="43.058845" lon="10.6143367"><ele>202.20000000000002</ele><time>2026-04-25T13:21:48.396Z</time></trkpt><trkpt lat="43.05876" lon="10.6143733"><ele>201.8</ele><time>2026-04-25T13:21:49.396Z</time></trkpt><trkpt lat="43.05868" lon="10.6144117"><ele>201.4</ele><time>2026-04-25T13:21:50.396Z</time></trkpt><trkpt lat="43.058585" lon="10.6144817"><ele>201.0</ele><time>2026-04-25T13:21:51.395Z</time></trkpt><trkpt lat="43.058495" lon="10.6145617"><ele>201.0</ele><time>2026-04-25T13:21:52.396Z</time></trkpt><trkpt lat="43.05841" lon="10.61464"><ele>201.0</ele><time>2026-04-25T13:21:53.395Z</time></trkpt><trkpt lat="43.0583283" lon="10.6147167"><ele>201.0</ele><time>2026-04-25T13:21:54.395Z</time></trkpt><trkpt lat="43.0582417" lon="10.61478"><ele>201.0</ele><time>2026-04-25T13:21:55.395Z</time></trkpt><trkpt lat="43.0581317" lon="10.614805"><ele>201.0</ele><time>2026-04-25T13:21:56.395Z</time></trkpt><trkpt lat="43.0580467" lon="10.6148517"><ele>198.60000000000002</ele><time>2026-04-25T13:21:57.396Z</time></trkpt><trkpt lat="43.0579567" lon="10.6149017"><ele>196.2</ele><time>2026-04-25T13:21:58.395Z</time></trkpt><trkpt lat="43.057875" lon="10.6149583"><ele>193.8</ele><time>2026-04-25T13:21:59.396Z</time></trkpt><trkpt lat="43.0577817" lon="10.61499"><ele>191.39999999999998</ele><time>2026-04-25T13:22:00.395Z</time></trkpt><trkpt lat="43.0576867" lon="10.6150033"><ele>189.0</ele><time>2026-04-25T13:22:01.395Z</time></trkpt><trkpt lat="43.0575733" lon="10.61498"><ele>189.0</ele><time>2026-04-25T13:22:02.395Z</time></trkpt><trkpt lat="43.0574717" lon="10.6149533"><ele>189.0</ele><time>2026-04-25T13:22:03.395Z</time></trkpt><trkpt lat="43.0573533" lon="10.61492"><ele>189.0</ele><time>2026-04-25T13:22:04.395Z</time></trkpt><trkpt lat="43.05725" lon="10.614875"><ele>189.0</ele><time>2026-04-25T13:22:05.395Z</time></trkpt><trkpt lat="43.0571483" lon="10.61483"><ele>189.0</ele><time>2026-04-25T13:22:06.395Z</time></trkpt><trkpt lat="43.0570517" lon="10.6148217"><ele>188.0</ele><time>2026-04-25T13:22:07.395Z</time></trkpt><trkpt lat="43.0569633" lon="10.614825"><ele>187.0</ele><time>2026-04-25T13:22:08.395Z</time></trkpt><trkpt lat="43.0568633" lon="10.6148467"><ele>186.0</ele><time>2026-04-25T13:22:09.395Z</time></trkpt><trkpt lat="43.0567617" lon="10.6148767"><ele>185.0</ele><time>2026-04-25T13:22:10.395Z</time></trkpt><trkpt lat="43.0566517" lon="10.6149217"><ele>184.0</ele><time>2026-04-25T13:22:11.395Z</time></trkpt><trkpt lat="43.0565567" lon="10.614975"><ele>181.0</ele><time>2026-04-25T13:22:12.396Z</time></trkpt><trkpt lat="43.0564633" lon="10.6150483"><ele>178.0</ele><time>2026-04-25T13:22:13.395Z</time></trkpt><trkpt lat="43.05636" lon="10.61513"><ele>175.0</ele><time>2026-04-25T13:22:14.396Z</time></trkpt><trkpt lat="43.05624" lon="10.6151983"><ele>172.0</ele><time>2026-04-25T13:22:15.395Z</time></trkpt><trkpt lat="43.0561267" lon="10.6152733"><ele>173.5</ele><time>2026-04-25T13:22:16.395Z</time></trkpt><trkpt lat="43.0560117" lon="10.615335"><ele>175.0</ele><time>2026-04-25T13:22:17.395Z</time></trkpt><trkpt lat="43.0558983" lon="10.6153883"><ele>176.5</ele><time>2026-04-25T13:22:18.396Z</time></trkpt><trkpt lat="43.0557867" lon="10.6154317"><ele>178.0</ele><time>2026-04-25T13:22:19.396Z</time></trkpt><trkpt lat="43.055685" lon="10.61547"><ele>174.25</ele><time>2026-04-25T13:22:20.396Z</time></trkpt><trkpt lat="43.055575" lon="10.6154983"><ele>170.5</ele><time>2026-04-25T13:22:21.395Z</time></trkpt><trkpt lat="43.05546" lon="10.61552"><ele>166.75</ele><time>2026-04-25T13:22:22.396Z</time></trkpt><trkpt lat="43.0553417" lon="10.6155433"><ele>163.0</ele><time>2026-04-25T13:22:23.396Z</time></trkpt><trkpt lat="43.0552317" lon="10.61557"><ele>163.0</ele><time>2026-04-25T13:22:24.396Z</time></trkpt><trkpt lat="43.0551183" lon="10.6155983"><ele>163.0</ele><time>2026-04-25T13:22:25.395Z</time></trkpt><trkpt lat="43.0550117" lon="10.6156333"><ele>163.0</ele><time>2026-04-25T13:22:26.396Z</time></trkpt><trkpt lat="43.0549117" lon="10.6156633"><ele>163.0</ele><time>2026-04-25T13:22:27.395Z</time></trkpt><trkpt lat="43.0548217" lon="10.61569"><ele>163.0</ele><time>2026-04-25T13:22:28.396Z</time></trkpt><trkpt lat="43.0547317" lon="10.6157133"><ele>158.6</ele><time>2026-04-25T13:22:29.395Z</time></trkpt><trkpt lat="43.0546483" lon="10.6157167"><ele>154.20000000000002</ele><time>2026-04-25T13:22:30.396Z</time></trkpt><trkpt lat="43.05456" lon="10.6156967"><ele>149.8</ele><time>2026-04-25T13:22:31.395Z</time></trkpt><trkpt lat="43.0544867" lon="10.6156117"><ele>145.4</ele><time>2026-04-25T13:22:32.395Z</time></trkpt><trkpt lat="43.0544317" lon="10.6154883"><ele>141.0</ele><time>2026-04-25T13:22:33.395Z</time></trkpt><trkpt lat="43.0544083" lon="10.615355"><ele>142.8</ele><time>2026-04-25T13:22:34.395Z</time></trkpt><trkpt lat="43.0543983" lon="10.61521"><ele>144.6</ele><time>2026-04-25T13:22:35.396Z</time></trkpt><trkpt lat="43.0543883" lon="10.615065"><ele>146.4</ele><time>2026-04-25T13:22:36.396Z</time></trkpt><trkpt lat="43.0543683" lon="10.61492"><ele>148.2</ele><time>2026-04-25T13:22:37.396Z</time></trkpt><trkpt lat="43.0543267" lon="10.6147783"><ele>150.0</ele><time>2026-04-25T13:22:38.396Z</time></trkpt><trkpt lat="43.054265" lon="10.6146567"><ele>150.0</ele><time>2026-04-25T13:22:39.396Z</time></trkpt><trkpt lat="43.054195" lon="10.614535"><ele>150.0</ele><time>2026-04-25T13:22:40.395Z</time></trkpt><trkpt lat="43.0541233" lon="10.6144133"><ele>150.0</ele><time>2026-04-25T13:22:41.396Z</time></trkpt><trkpt lat="43.05405" lon="10.61428"><ele>150.0</ele><time>2026-04-25T13:22:42.395Z</time></trkpt><trkpt lat="43.05397" lon="10.614165"><ele>150.4</ele><time>2026-04-25T13:22:43.396Z</time></trkpt><trkpt lat="43.0539" lon="10.61405"><ele>150.8</ele><time>2026-04-25T13:22:44.395Z</time></trkpt><trkpt lat="43.0538417" lon="10.61393"><ele>151.2</ele><time>2026-04-25T13:22:45.396Z</time></trkpt><trkpt lat="43.0537883" lon="10.613795"><ele>151.6</ele><time>2026-04-25T13:22:46.395Z</time></trkpt><trkpt lat="43.053755" lon="10.61366"><ele>152.0</ele><time>2026-04-25T13:22:47.396Z</time></trkpt><trkpt lat="43.05374" lon="10.6135083"><ele>152.0</ele><time>2026-04-25T13:22:48.395Z</time></trkpt><trkpt lat="43.053745" lon="10.613355"><ele>152.0</ele><time>2026-04-25T13:22:49.395Z</time></trkpt><trkpt lat="43.0537683" lon="10.6132"><ele>152.0</ele><time>2026-04-25T13:22:50.396Z</time></trkpt><trkpt lat="43.0537867" lon="10.6130633"><ele>152.0</ele><time>2026-04-25T13:22:51.395Z</time></trkpt><trkpt lat="43.0538067" lon="10.612935"><ele>152.0</ele><time>2026-04-25T13:22:52.395Z</time></trkpt><trkpt lat="43.0538117" lon="10.6128133"><ele>151.4</ele><time>2026-04-25T13:22:53.396Z</time></trkpt><trkpt lat="43.0537983" lon="10.612695"><ele>150.79999999999998</ele><time>2026-04-25T13:22:54.395Z</time></trkpt><trkpt lat="43.0537717" lon="10.612575"><ele>150.2</ele><time>2026-04-25T13:22:55.395Z</time></trkpt><trkpt lat="43.0537267" lon="10.6124617"><ele>149.6</ele><time>2026-04-25T13:22:56.396Z</time></trkpt><trkpt lat="43.05366" lon="10.6123367"><ele>149.0</ele><time>2026-04-25T13:22:57.396Z</time></trkpt><trkpt lat="43.0535817" lon="10.6122317"><ele>149.0</ele><time>2026-04-25T13:22:58.395Z</time></trkpt><trkpt lat="43.0534917" lon="10.6121167"><ele>149.0</ele><time>2026-04-25T13:22:59.395Z</time></trkpt><trkpt lat="43.0533917" lon="10.6120217"><ele>149.0</ele><time>2026-04-25T13:23:00.395Z</time></trkpt><trkpt lat="43.0532983" lon="10.611965"><ele>149.0</ele><time>2026-04-25T13:23:01.396Z</time></trkpt><trkpt lat="43.0531983" lon="10.611905"><ele>147.8</ele><time>2026-04-25T13:23:02.395Z</time></trkpt><trkpt lat="43.0530967" lon="10.6118767"><ele>146.60000000000002</ele><time>2026-04-25T13:23:03.395Z</time></trkpt><trkpt lat="43.052985" lon="10.6118633"><ele>145.4</ele><time>2026-04-25T13:23:04.395Z</time></trkpt><trkpt lat="43.05287" lon="10.611855"><ele>144.20000000000002</ele><time>2026-04-25T13:23:05.395Z</time></trkpt><trkpt lat="43.0527617" lon="10.611855"><ele>143.0</ele><time>2026-04-25T13:23:06.395Z</time></trkpt><trkpt lat="43.0526617" lon="10.6118583"><ele>143.0</ele><time>2026-04-25T13:23:07.396Z</time></trkpt><trkpt lat="43.0525617" lon="10.6118633"><ele>143.0</ele><time>2026-04-25T13:23:08.396Z</time></trkpt><trkpt lat="43.05245" lon="10.6118883"><ele>143.0</ele><time>2026-04-25T13:23:09.395Z</time></trkpt><trkpt lat="43.0523433" lon="10.6119233"><ele>143.0</ele><time>2026-04-25T13:23:10.396Z</time></trkpt><trkpt lat="43.0522433" lon="10.6119917"><ele>143.0</ele><time>2026-04-25T13:23:11.396Z</time></trkpt><trkpt lat="43.0521667" lon="10.6120983"><ele>143.5</ele><time>2026-04-25T13:23:12.395Z</time></trkpt><trkpt lat="43.0521017" lon="10.6122267"><ele>144.0</ele><time>2026-04-25T13:23:13.396Z</time></trkpt><trkpt lat="43.0520433" lon="10.61236"><ele>144.5</ele><time>2026-04-25T13:23:14.395Z</time></trkpt><trkpt lat="43.05199" lon="10.6125067"><ele>145.0</ele><time>2026-04-25T13:23:15.395Z</time></trkpt><trkpt lat="43.05194" lon="10.612645"><ele>145.0</ele><time>2026-04-25T13:23:16.395Z</time></trkpt><trkpt lat="43.051875" lon="10.6127967"><ele>145.0</ele><time>2026-04-25T13:23:17.396Z</time></trkpt><trkpt lat="43.051805" lon="10.6129317"><ele>145.0</ele><time>2026-04-25T13:23:18.395Z</time></trkpt><trkpt lat="43.0517317" lon="10.613055"><ele>145.0</ele><time>2026-04-25T13:23:19.395Z</time></trkpt><trkpt lat="43.0516383" lon="10.6131567"><ele>144.5</ele><time>2026-04-25T13:23:20.396Z</time></trkpt><trkpt lat="43.0515233" lon="10.6132517"><ele>144.0</ele><time>2026-04-25T13:23:21.395Z</time></trkpt><trkpt lat="43.0514133" lon="10.6133333"><ele>143.5</ele><time>2026-04-25T13:23:22.395Z</time></trkpt><trkpt lat="43.0512933" lon="10.6134167"><ele>143.0</ele><time>2026-04-25T13:23:23.395Z</time></trkpt><trkpt lat="43.05118" lon="10.6135017"><ele>143.0</ele><time>2026-04-25T13:23:24.395Z</time></trkpt><trkpt lat="43.051065" lon="10.6135767"><ele>143.0</ele><time>2026-04-25T13:23:25.396Z</time></trkpt><trkpt lat="43.0508383" lon="10.6137333"><ele>139.0</ele><time>2026-04-25T13:23:27.396Z</time></trkpt></trkseg></trk></gpx>